Air Quality Table

TIMESTAMP NO2 SO2 O3 PM10 PM2.5 TEMP HUM AIRPRES WS WD NO
2022-10-02 18:00 10.19 µg/m3 0.01 µg/m3 72.78 µg/m3 32.93 µg/m3 4.66 µg/m3 23.65 °C 77.65 % 1,014.41 mbar 3.24 m/s 342.32 Deg 1.66 µg/m3
2022-10-02 17:00 10.58 µg/m3 0.02 µg/m3 75.01 µg/m3 19.64 µg/m3 4.01 µg/m3 24.13 °C 74.12 % 1,014.63 mbar 4.12 m/s 351.87 Deg 1.9 µg/m3
2022-10-02 16:00 5.15 µg/m3 0.04 µg/m3 79.83 µg/m3 14.28 µg/m3 4.47 µg/m3 24.57 °C 68.07 % 1,015.07 mbar 4.48 m/s 354.72 Deg 1.63 µg/m3
2022-10-02 15:00 5.15 µg/m3 0.03 µg/m3 84.3 µg/m3 20.12 µg/m3 5.16 µg/m3 25.04 °C 64.66 % 1,015.41 mbar 4.35 m/s 346.72 Deg 1.54 µg/m3
2022-10-02 14:00 6.98 µg/m3 0.03 µg/m3 80.03 µg/m3 16.8 µg/m3 6.24 µg/m3 25.19 °C 59.6 % 1,015.91 mbar 4.59 m/s 349.87 Deg 2.13 µg/m3
2022-10-02 13:00 6.01 µg/m3 0.07 µg/m3 78.68 µg/m3 17.61 µg/m3 5.31 µg/m3 25.63 °C 56.62 % 1,016.57 mbar 2.84 m/s 329.52 Deg 2.05 µg/m3
2022-10-02 12:00 5.12 µg/m3 0.07 µg/m3 80.71 µg/m3 12.51 µg/m3 4.84 µg/m3 24.83 °C 59.33 % 1,017.18 mbar 3.51 m/s 97.18 Deg 1.7 µg/m3
2022-10-02 11:00 9.88 µg/m3 0.05 µg/m3 74.93 µg/m3 10.41 µg/m3 4.55 µg/m3 24.8 °C 53.33 % 1,017.34 mbar 3.23 m/s 178.52 Deg 3.02 µg/m3
2022-10-02 10:00 8.63 µg/m3 0.07 µg/m3 72.83 µg/m3 11.31 µg/m3 3.75 µg/m3 24.17 °C 53.19 % 1,017.22 mbar 3.54 m/s 348.2 Deg 2.91 µg/m3
2022-10-02 09:00 7.65 µg/m3 0.05 µg/m3 71.71 µg/m3 14.91 µg/m3 3.84 µg/m3 23.72 °C 54.53 % 1,017.21 mbar 3.86 m/s 261.58 Deg 2.34 µg/m3
2022-10-02 08:00 8.8 µg/m3 0.08 µg/m3 68.64 µg/m3 13.59 µg/m3 3.58 µg/m3 23.1 °C 56.46 % 1,016.82 mbar 3.57 m/s 267.35 Deg 2.11 µg/m3
2022-10-02 07:00 9.77 µg/m3 0.03 µg/m3 67.02 µg/m3 13.41 µg/m3 4.29 µg/m3 22.42 °C 58.84 % 1,016.48 mbar 3.91 m/s 262.43 Deg 1.6 µg/m3
2022-10-02 06:00 5.43 µg/m3 0.02 µg/m3 71.99 µg/m3 18.21 µg/m3 5.7 µg/m3 22.18 °C 64.34 % 1,016.42 mbar 4.32 m/s 349.13 Deg 1.11 µg/m3
2022-10-02 05:00 3.79 µg/m3 0.05 µg/m3 72.79 µg/m3 13.35 µg/m3 5.13 µg/m3 22.2 °C 62.28 % 1,016.17 mbar 4.66 m/s 349.73 Deg 0.94 µg/m3
2022-10-02 04:00 4.18 µg/m3 0.11 µg/m3 74.94 µg/m3 12.14 µg/m3 5.85 µg/m3 22.31 °C 65.96 % 1,015.87 mbar 5.91 m/s 348 Deg 0.78 µg/m3
2022-10-02 03:00 3.34 µg/m3 -0.01 µg/m3 74.27 µg/m3 10.42 µg/m3 5.44 µg/m3 22.38 °C 65.11 % 1,015.98 mbar 6.09 m/s 344.73 Deg 0.79 µg/m3
2022-10-02 02:00 4.52 µg/m3 -0.01 µg/m3 72.92 µg/m3 11.67 µg/m3 5.37 µg/m3 22.43 °C 64.42 % 1,016.12 mbar 5.89 m/s 347.75 Deg 0.79 µg/m3
2022-10-02 01:00 4.75 µg/m3 0.03 µg/m3 71.92 µg/m3 15.71 µg/m3 4.14 µg/m3 22.63 °C 63.3 % 1,016.21 mbar 4.93 m/s 343.3 Deg 1.03 µg/m3
2022-10-02 00:00 4.29 µg/m3 0.02 µg/m3 72.98 µg/m3 13.83 µg/m3 5.4 µg/m3 23.16 °C 61.49 % 1,015.94 mbar 4.76 m/s 342.53 Deg 0.88 µg/m3
2022-10-01 23:00 6.33 µg/m3 0 µg/m3 67.65 µg/m3 14.95 µg/m3 6.26 µg/m3 23.54 °C 65.86 % 1,015.45 mbar 3.79 m/s 335.15 Deg 1.17 µg/m3
2022-10-01 22:00 6.01 µg/m3 -0.01 µg/m3 66.3 µg/m3 18.75 µg/m3 5.76 µg/m3 24.07 °C 71.61 % 1,015.18 mbar 4.13 m/s 338.95 Deg 1.04 µg/m3
2022-10-01 21:00 7.62 µg/m3 0.03 µg/m3 64.33 µg/m3 13.61 µg/m3 6.3 µg/m3 24.4 °C 73.29 % 1,014.74 mbar 3.85 m/s 331.62 Deg 1.45 µg/m3
2022-10-01 20:00 8.44 µg/m3 0.05 µg/m3 66.84 µg/m3 13.42 µg/m3 4.66 µg/m3 24.79 °C 73.47 % 1,013.96 mbar 3.85 m/s 333.8 Deg 1.4 µg/m3
2022-10-01 19:00 10.05 µg/m3 0.03 µg/m3 69.73 µg/m3 13.71 µg/m3 6.43 µg/m3 25.14 °C 76.23 % 1,013.12 mbar 3.48 m/s 335.03 Deg 1.8 µg/m3
2022-10-01 18:00 12.36 µg/m3 0.04 µg/m3 73.99 µg/m3 17.07 µg/m3 7.19 µg/m3 26.04 °C 69.04 % 1,012.69 mbar 3.22 m/s 330.33 Deg 1.81 µg/m3
2022-10-01 17:00 8.33 µg/m3 0.03 µg/m3 75.76 µg/m3 26.18 µg/m3 6.96 µg/m3 26.41 °C 70.24 % 1,012.34 mbar 3.75 m/s 337.17 Deg 1.7 µg/m3
2022-10-01 16:00 8.1 µg/m3 0.01 µg/m3 73.63 µg/m3 18.52 µg/m3 4.66 µg/m3 26.72 °C 77.8 % 1,011.74 mbar 4.45 m/s 343.82 Deg 2.35 µg/m3
2022-10-01 15:00 8.23 µg/m3 0.04 µg/m3 70.8 µg/m3 16.65 µg/m3 6.43 µg/m3 27.55 °C 76.99 % 1,011.25 mbar 3.9 m/s 347.3 Deg 2.41 µg/m3
2022-10-01 14:00 9.46 µg/m3 0.03 µg/m3 68.03 µg/m3 24.6 µg/m3 7.25 µg/m3 27.5 °C 79.78 % 1,011.49 mbar 3.4 m/s 338.62 Deg 2.6 µg/m3
2022-10-01 13:00 7.53 µg/m3 0.04 µg/m3 75.79 µg/m3 42.52 µg/m3 10.89 µg/m3 26.67 °C 86.7 % 1,011.41 mbar 3.91 m/s 173.3 Deg 2.2 µg/m3
2022-10-01 12:00 5.68 µg/m3 0.03 µg/m3 74.33 µg/m3 60.02 µg/m3 14.89 µg/m3 26.42 °C 90.79 % 1,011.05 mbar 3.99 m/s 97.52 Deg 2.27 µg/m3
2022-10-01 11:00 8.38 µg/m3 0.01 µg/m3 72.15 µg/m3 61.5 µg/m3 14.94 µg/m3 26.34 °C 90.54 % 1,010.35 mbar 4.55 m/s 27.88 Deg 2.86 µg/m3
2022-10-01 10:00 6.19 µg/m3 0.03 µg/m3 70.8 µg/m3 72.49 µg/m3 20.77 µg/m3 25.99 °C 94.46 % 1,009.68 mbar 4.34 m/s 30.15 Deg 2.57 µg/m3
2022-10-01 09:00 6.87 µg/m3 0.01 µg/m3 68.17 µg/m3 63.59 µg/m3 13.84 µg/m3 25.88 °C 94.44 % 1,008.65 mbar 4.56 m/s 35.52 Deg 2.53 µg/m3
2022-10-01 08:00 9.61 µg/m3 -0 µg/m3 63.54 µg/m3 43.86 µg/m3 14.75 µg/m3 25.31 °C 97.15 % 1,007.77 mbar 3.79 m/s 35.18 Deg 2.33 µg/m3
2022-10-01 07:00 9.86 µg/m3 0.01 µg/m3 62.56 µg/m3 43.89 µg/m3 13.81 µg/m3 24.83 °C 99.9 % 1,007.03 mbar 3.83 m/s 38.42 Deg 1.63 µg/m3
2022-10-01 06:00 4.23 µg/m3 -0.03 µg/m3 68.83 µg/m3 47.82 µg/m3 17.47 µg/m3 24.74 °C 99.9 % 1,006.42 mbar 4.52 m/s 39.28 Deg 1.16 µg/m3
2022-10-01 05:00 3.79 µg/m3 -0 µg/m3 64.25 µg/m3 51.56 µg/m3 9.43 µg/m3 25.07 °C 99.9 % 1,005.87 mbar 4.31 m/s 39.35 Deg 1.12 µg/m3
2022-10-01 04:00 1.48 µg/m3 0.1 µg/m3 63.77 µg/m3 61.42 µg/m3 12.89 µg/m3 25.21 °C 99.9 % 1,005.33 mbar 2.79 m/s 35.7 Deg 0.86 µg/m3
2022-10-01 03:00 3.01 µg/m3 -0.02 µg/m3 56.51 µg/m3 63.07 µg/m3 19.27 µg/m3 25.45 °C 99.9 % 1,005.05 mbar 2.44 m/s 31.52 Deg 0.91 µg/m3
2022-10-01 02:00 1 µg/m3 -0.01 µg/m3 58.56 µg/m3 61.99 µg/m3 10.85 µg/m3 25.6 °C 99.9 % 1,004.98 mbar 1.61 m/s 179.34 Deg 0.85 µg/m3
2022-10-01 01:00 0.55 µg/m3 -0.05 µg/m3 62.16 µg/m3 49.26 µg/m3 13.84 µg/m3 25.6 °C 99.9 % 1,004.79 mbar 3.67 m/s 126.13 Deg 0.88 µg/m3
2022-10-01 00:00 0.68 µg/m3 -0.03 µg/m3 64.69 µg/m3 36.43 µg/m3 11.77 µg/m3 25.69 °C 99.96 % 1,004.60 mbar 4.99 m/s 134.65 Deg 0.86 µg/m3
2022-09-30 23:00 0.16 µg/m3 -0.01 µg/m3 66.02 µg/m3 37.71 µg/m3 10.29 µg/m3 25.71 °C 99.21 % 1,004.44 mbar 6.42 m/s 139.88 Deg 0.85 µg/m3
2022-09-30 22:00 0.12 µg/m3 -0.01 µg/m3 66.21 µg/m3 45.63 µg/m3 9.22 µg/m3 25.73 °C 97.99 % 1,003.99 mbar 6.94 m/s 138.55 Deg 0.85 µg/m3
2022-09-30 21:00 1.53 µg/m3 -0.05 µg/m3 63.66 µg/m3 32.84 µg/m3 8.6 µg/m3 25.63 °C 98.79 % 1,003.80 mbar 7.79 m/s 138.95 Deg 0.9 µg/m3
2022-09-30 20:00 0.49 µg/m3 -0.01 µg/m3 60.22 µg/m3 26.78 µg/m3 9.89 µg/m3 25.57 °C 98.81 % 1,002.87 mbar 8.38 m/s 128.02 Deg 0.87 µg/m3
2022-09-30 19:00 1.09 µg/m3 -0 µg/m3 56.98 µg/m3 35.93 µg/m3 16.34 µg/m3 25.44 °C 99.9 % 1,002.73 mbar 8.4 m/s 124.23 Deg 0.95 µg/m3
2022-09-30 18:00 1.48 µg/m3 0.02 µg/m3 58.58 µg/m3 35.85 µg/m3 8.99 µg/m3 25.63 °C 99.46 % 1,003.29 mbar 7.46 m/s 129.7 Deg 1.29 µg/m3
2022-09-30 17:00 1.29 µg/m3 -0 µg/m3 60.89 µg/m3 31.67 µg/m3 12.01 µg/m3 25.97 °C 96.81 % 1,003.83 mbar 5.45 m/s 156.38 Deg 0.97 µg/m3
2022-09-30 16:00 1.08 µg/m3 0.02 µg/m3 64.36 µg/m3 44.38 µg/m3 15.77 µg/m3 26.34 °C 94.65 % 1,004.23 mbar 4.89 m/s 129.35 Deg 1 µg/m3
2022-09-30 15:00 1.88 µg/m3 -0.03 µg/m3 64.24 µg/m3 39.33 µg/m3 9.96 µg/m3 26.34 °C 95.58 % 1,003.22 mbar 6.52 m/s 127 Deg 1.06 µg/m3
2022-09-30 14:00 1.15 µg/m3 -0 µg/m3 68.12 µg/m3 21.58 µg/m3 16.2 µg/m3 26.44 °C 94.61 % 1,004.12 mbar 5.88 m/s 138.65 Deg 0.96 µg/m3
2022-09-30 13:00 1.44 µg/m3 -0 µg/m3 73.15 µg/m3 20.66 µg/m3 11.62 µg/m3 27.38 °C 86.81 % 1,004.02 mbar 6.72 m/s 135.87 Deg 1.09 µg/m3
2022-09-30 12:00 1.65 µg/m3 -0 µg/m3 74.81 µg/m3 32.75 µg/m3 7.22 µg/m3 27.06 °C 87.9 % 1,004.11 mbar 7.25 m/s 143.47 Deg 1.11 µg/m3
2022-09-30 11:00 1.14 µg/m3 -0.01 µg/m3 76.52 µg/m3 27.76 µg/m3 8.52 µg/m3 26.72 °C 88.34 % 1,004.28 mbar 7.56 m/s 141.7 Deg 1.03 µg/m3
2022-09-30 10:00 1.34 µg/m3 -0.02 µg/m3 72.75 µg/m3 28.08 µg/m3 8.58 µg/m3 26.44 °C 88.02 % 1,004.25 mbar 7.27 m/s 141.68 Deg 1.08 µg/m3
2022-09-30 09:00 3.39 µg/m3 0.01 µg/m3 70.17 µg/m3 23.92 µg/m3 11.74 µg/m3 26.26 °C 86.63 % 1,003.50 mbar 7.14 m/s 141 Deg 1.33 µg/m3
2022-09-30 08:00 2.54 µg/m3 -0.02 µg/m3 70.5 µg/m3 21.01 µg/m3 7.66 µg/m3 25.8 °C 86.77 % 1,003.54 mbar 6.05 m/s 144.23 Deg 1.01 µg/m3
2022-09-30 07:00 5.95 µg/m3 -0 µg/m3 65.99 µg/m3 27.01 µg/m3 8.42 µg/m3 25.35 °C 88.39 % 1,003.13 mbar 5.57 m/s 142.67 Deg 1.1 µg/m3
2022-09-30 06:00 5.78 µg/m3 -0 µg/m3 66.29 µg/m3 13.36 µg/m3 11.34 µg/m3 25.1 °C 89.77 % 1,002.77 mbar 5.05 m/s 142.52 Deg 1 µg/m3
2022-09-30 05:00 4.38 µg/m3 0.01 µg/m3 67.79 µg/m3 10.21 µg/m3 6.34 µg/m3 25.05 °C 88.93 % 1,002.49 mbar 4.75 m/s 150.52 Deg 0.91 µg/m3
2022-09-30 04:00 1.71 µg/m3 0.13 µg/m3 68.56 µg/m3 10.21 µg/m3 6.03 µg/m3 24.92 °C 86.84 % 1,002.21 mbar 4.27 m/s 149.05 Deg 0.85 µg/m3
2022-09-30 03:00 1.57 µg/m3 0.01 µg/m3 68.75 µg/m3 9.31 µg/m3 8.43 µg/m3 24.93 °C 86.27 % 1,002.57 mbar 4.39 m/s 149.18 Deg 0.83 µg/m3
2022-09-30 02:00 2.92 µg/m3 0.02 µg/m3 70.94 µg/m3 8.47 µg/m3 6.48 µg/m3 25.01 °C 79.91 % 1,003.00 mbar 3.54 m/s 169.53 Deg 0.86 µg/m3
2022-09-30 01:00 2.67 µg/m3 0 µg/m3 72.01 µg/m3 10.46 µg/m3 7 µg/m3 24.87 °C 75.79 % 1,003.09 mbar 3.31 m/s 169.78 Deg 0.88 µg/m3
2022-09-30 00:00 3.18 µg/m3 0.01 µg/m3 72.18 µg/m3 12.35 µg/m3 7.74 µg/m3 24.86 °C 73.96 % 1,003.32 mbar 3.83 m/s 171.15 Deg 0.88 µg/m3
2022-09-29 23:00 4.14 µg/m3 0.02 µg/m3 71.16 µg/m3 18.54 µg/m3 7.71 µg/m3 24.8 °C 76.65 % 1,003.66 mbar 4.07 m/s 173.3 Deg 0.91 µg/m3
2022-09-29 22:00 2.5 µg/m3 0.03 µg/m3 74.99 µg/m3 26.45 µg/m3 5.98 µg/m3 24.65 °C 76.2 % 1,003.48 mbar 3.6 m/s 168.87 Deg 0.91 µg/m3
2022-09-29 21:00 8.25 µg/m3 0.05 µg/m3 70.52 µg/m3 17.39 µg/m3 5.94 µg/m3 24.6 °C 74.1 % 1,003.46 mbar 2.3 m/s 172.78 Deg 0.99 µg/m3
2022-09-29 20:00 12.98 µg/m3 0.03 µg/m3 67.65 µg/m3 14.6 µg/m3 4.78 µg/m3 24.56 °C 73.63 % 1,003.12 mbar 2.08 m/s 186.3 Deg 1.11 µg/m3
2022-09-29 19:00 6.79 µg/m3 0.06 µg/m3 74.1 µg/m3 12.51 µg/m3 4.59 µg/m3 24.73 °C 71.49 % 1,002.79 mbar 1.9 m/s 203.82 Deg 1.01 µg/m3
2022-09-29 18:00 4.01 µg/m3 0.07 µg/m3 77.77 µg/m3 12.39 µg/m3 6.3 µg/m3 25.26 °C 68.18 % 1,002.45 mbar 2.64 m/s 210.82 Deg 1.05 µg/m3
2022-09-29 17:00 3.38 µg/m3 0.08 µg/m3 76.65 µg/m3 13.04 µg/m3 6.07 µg/m3 25.92 °C 63.02 % 1,002.24 mbar 3.94 m/s 203.08 Deg 1.22 µg/m3
2022-09-29 16:00 4.09 µg/m3 0.11 µg/m3 74.3 µg/m3 19.06 µg/m3 7.75 µg/m3 26.22 °C 63.28 % 1,002.13 mbar 4.57 m/s 198.57 Deg 1.52 µg/m3
2022-09-29 15:00 3.73 µg/m3 0.14 µg/m3 76.51 µg/m3 32.5 µg/m3 11.83 µg/m3 26.48 °C 62.82 % 1,002.44 mbar 4.68 m/s 191.37 Deg 1.56 µg/m3
2022-09-29 14:00 3.42 µg/m3 0.17 µg/m3 76.15 µg/m3 34.35 µg/m3 18.66 µg/m3 26.48 °C 63.29 % 1,002.68 mbar 5.1 m/s 203.85 Deg 1.63 µg/m3
2022-09-29 13:00 4.38 µg/m3 0.22 µg/m3 73.68 µg/m3 54.56 µg/m3 26.5 µg/m3 26.47 °C 62.54 % 1,002.97 mbar 4.24 m/s 204.97 Deg 2.17 µg/m3
2022-09-29 12:00 5.53 µg/m3 0.23 µg/m3 68.01 µg/m3 70.04 µg/m3 48.96 µg/m3 26.32 °C 63.27 % 1,003.42 mbar 4.38 m/s 205.5 Deg 2.66 µg/m3
2022-09-29 11:00 6 µg/m3 0.21 µg/m3 61.89 µg/m3 84.52 µg/m3 52.68 µg/m3 26.19 °C 63.14 % 1,003.67 mbar 3.85 m/s 210.97 Deg 3.13 µg/m3
2022-09-29 10:00 27.45 µg/m3 0.23 µg/m3 62.65 µg/m3 34.91 µg/m3 7.2 µg/m3 25.77 °C 65.04 % 1,003.65 mbar 3.72 m/s 220.87 Deg 14.7 µg/m3
2022-09-29 09:00 10.06 µg/m3 0.04 µg/m3 74.65 µg/m3 20.96 µg/m3 7.35 µg/m3 25.36 °C 67.9 % 1,003.46 mbar 3.05 m/s 227.47 Deg 2.59 µg/m3
2022-09-29 08:00 21.32 µg/m3 0.06 µg/m3 59.58 µg/m3 31.85 µg/m3 9.98 µg/m3 24.49 °C 71.96 % 1,003.48 mbar 1.9 m/s 233.43 Deg 4.72 µg/m3
2022-09-29 07:00 36.16 µg/m3 0.06 µg/m3 42.85 µg/m3 21.07 µg/m3 6.37 µg/m3 22.82 °C 77.38 % 1,003.45 mbar 1.75 m/s 256 Deg 4.46 µg/m3
2022-09-29 06:00 38.32 µg/m3 0.08 µg/m3 40.15 µg/m3 14.99 µg/m3 6.89 µg/m3 22.54 °C 77.24 % 1,003.44 mbar 1.52 m/s 261.2 Deg 3.39 µg/m3
2022-09-29 05:00 13.07 µg/m3 0.03 µg/m3 59.58 µg/m3 15.81 µg/m3 6.7 µg/m3 22.7 °C 76.38 % 1,003.43 mbar 1.54 m/s 275.62 Deg 1.16 µg/m3
2022-09-29 04:00 6.99 µg/m3 0.13 µg/m3 62.14 µg/m3 20.55 µg/m3 6.61 µg/m3 22.39 °C 77.65 % 1,003.32 mbar 1.41 m/s 282 Deg 0.91 µg/m3
2022-09-29 03:00 10.17 µg/m3 0.07 µg/m3 52.61 µg/m3 16.05 µg/m3 6.93 µg/m3 21.98 °C 79.43 % 1,003.43 mbar 1.04 m/s 296.18 Deg 1 µg/m3
2022-09-29 02:00 9.28 µg/m3 0.03 µg/m3 57.36 µg/m3 19.69 µg/m3 7.36 µg/m3 22.25 °C 78.29 % 1,003.72 mbar 0.98 m/s 292.22 Deg 0.9 µg/m3
2022-09-29 01:00 7.23 µg/m3 0.07 µg/m3 63.41 µg/m3 24.62 µg/m3 8.45 µg/m3 22.65 °C 76.28 % 1,003.88 mbar 1.04 m/s 280.25 Deg 0.83 µg/m3
2022-09-29 00:00 10.31 µg/m3 0.02 µg/m3 58.43 µg/m3 17.69 µg/m3 12.05 µg/m3 22.63 °C 75.82 % 1,004.31 mbar 1.2 m/s 281.8 Deg 0.91 µg/m3
2022-09-28 23:00 17.36 µg/m3 0.04 µg/m3 50.77 µg/m3 22.31 µg/m3 6.15 µg/m3 22.8 °C 73.41 % 1,004.21 mbar 0.94 m/s 284.15 Deg 1.1 µg/m3
2022-09-28 22:00 24.31 µg/m3 0.06 µg/m3 47.06 µg/m3 32.92 µg/m3 7.63 µg/m3 22.82 °C 71.73 % 1,004.37 mbar 0.87 m/s 291.7 Deg 1.22 µg/m3
2022-09-28 21:00 24.53 µg/m3 0.05 µg/m3 48.54 µg/m3 30.19 µg/m3 5.66 µg/m3 22.95 °C 71.73 % 1,004.15 mbar 0.85 m/s 276.03 Deg 1.31 µg/m3
2022-09-28 20:00 20.9 µg/m3 0.06 µg/m3 56.8 µg/m3 21.43 µg/m3 6.77 µg/m3 23.16 °C 70.64 % 1,003.83 mbar 1.11 m/s 287.18 Deg 1.25 µg/m3
2022-09-28 19:00 22.36 µg/m3 0.06 µg/m3 64.21 µg/m3 17.41 µg/m3 5.3 µg/m3 23.68 °C 68.01 % 1,003.46 mbar 1.53 m/s 305.18 Deg 1.94 µg/m3
2022-09-28 18:00 17.37 µg/m3 0.02 µg/m3 68.4 µg/m3 24.85 µg/m3 5.09 µg/m3 24.29 °C 66.15 % 1,003.25 mbar 2.49 m/s 317.77 Deg 3.02 µg/m3
2022-09-28 17:00 11.43 µg/m3 0.02 µg/m3 76.63 µg/m3 18.96 µg/m3 4.12 µg/m3 25.19 °C 63.16 % 1,003.16 mbar 2.74 m/s 319.05 Deg 2.31 µg/m3
2022-09-28 16:00 13.61 µg/m3 0.01 µg/m3 76.09 µg/m3 18.89 µg/m3 4.42 µg/m3 25.71 °C 61.77 % 1,003.03 mbar 3.28 m/s 310.72 Deg 3.14 µg/m3
2022-09-28 15:00 13.52 µg/m3 0.03 µg/m3 73.61 µg/m3 20.21 µg/m3 4.87 µg/m3 25.89 °C 64.81 % 1,003.02 mbar 3.04 m/s 309.35 Deg 3.83 µg/m3
2022-09-28 14:00 9.3 µg/m3 0.02 µg/m3 79.66 µg/m3 10.74 µg/m3 5.99 µg/m3 26.05 °C 61.42 % 1,003.21 mbar 3.84 m/s 279.85 Deg 2.42 µg/m3
2022-09-28 13:00 8.09 µg/m3 0.02 µg/m3 82.56 µg/m3 9.97 µg/m3 7.04 µg/m3 26.24 °C 57.73 % 1,003.56 mbar 4 m/s 277.75 Deg 2.24 µg/m3
2022-09-28 12:00 8.67 µg/m3 0.04 µg/m3 82.72 µg/m3 15.46 µg/m3 6.7 µg/m3 26.03 °C 57.99 % 1,003.84 mbar 3.63 m/s 279.72 Deg 2.34 µg/m3
2022-09-28 11:00 8.9 µg/m3 0.09 µg/m3 82.83 µg/m3 23.02 µg/m3 9.44 µg/m3 25.88 °C 61.38 % 1,003.80 mbar 3.71 m/s 282.57 Deg 2.07 µg/m3
2022-09-28 10:00 0 µg/m3 0 µg/m3 0 µg/m3 30.44 µg/m3 11.98 µg/m3 25.56 °C 64.52 % 1,003.74 mbar 3.34 m/s 272.35 Deg 0 µg/m3
2022-09-28 09:00 0 µg/m3 0 µg/m3 0 µg/m3 36.29 µg/m3 9.9 µg/m3 25.13 °C 64.63 % 1,003.90 mbar 2.56 m/s 289.77 Deg 0 µg/m3
2022-09-28 08:00 0 µg/m3 0 µg/m3 0 µg/m3 43.79 µg/m3 9.79 µg/m3 24.12 °C 71.79 % 1,003.96 mbar 1.78 m/s 293.58 Deg 0 µg/m3
2022-09-28 07:00 0 µg/m3 0 µg/m3 0 µg/m3 23.17 µg/m3 8.58 µg/m3 22.72 °C 77.93 % 1,003.80 mbar 1.51 m/s 285.67 Deg 0 µg/m3
2022-09-28 06:00 56.48 µg/m3 0.1 µg/m3 23.51 µg/m3 7.68 µg/m3 4.58 µg/m3 21.85 °C 80.02 % 1,003.60 mbar 1.16 m/s 280.25 Deg 9.94 µg/m3
2022-09-28 05:00 24.14 µg/m3 0.05 µg/m3 44.27 µg/m3 6.76 µg/m3 5.71 µg/m3 21.6 °C 82.25 % 1,003.49 mbar 1.26 m/s 301.47 Deg 1.63 µg/m3
2022-09-28 04:00 9.5 µg/m3 0.17 µg/m3 59.11 µg/m3 9.29 µg/m3 5.38 µg/m3 21.54 °C 81.84 % 1,003.33 mbar 1.01 m/s 308.82 Deg 0.93 µg/m3
2022-09-28 03:00 9.81 µg/m3 0.06 µg/m3 59.12 µg/m3 11.71 µg/m3 5.1 µg/m3 21.78 °C 79.42 % 1,003.60 mbar 1.14 m/s 301.7 Deg 1.12 µg/m3
2022-09-28 02:00 7.48 µg/m3 0.06 µg/m3 60.56 µg/m3 15.5 µg/m3 6.14 µg/m3 22.14 °C 77.82 % 1,004.20 mbar 1.22 m/s 289.7 Deg 0.85 µg/m3
2022-09-28 01:00 9.34 µg/m3 -0.01 µg/m3 59.23 µg/m3 20.48 µg/m3 5.39 µg/m3 22.5 °C 78.12 % 1,004.60 mbar 1.01 m/s 288.32 Deg 0.87 µg/m3
2022-09-28 00:00 12.37 µg/m3 0.04 µg/m3 59.01 µg/m3 15.12 µg/m3 5 µg/m3 22.89 °C 78.94 % 1,004.63 mbar 1.02 m/s 307.48 Deg 0.91 µg/m3
2022-09-27 23:00 15.36 µg/m3 0.04 µg/m3 57.17 µg/m3 15.42 µg/m3 5.92 µg/m3 23.11 °C 78.7 % 1,004.83 mbar 0.74 m/s 306.67 Deg 1.03 µg/m3
2022-09-27 22:00 14.51 µg/m3 0.02 µg/m3 64.67 µg/m3 18.08 µg/m3 5.77 µg/m3 23.55 °C 77.71 % 1,004.55 mbar 1.27 m/s 301.68 Deg 1.04 µg/m3
2022-09-27 21:00 15.19 µg/m3 0.04 µg/m3 67.37 µg/m3 23.65 µg/m3 6.93 µg/m3 23.85 °C 81.29 % 1,003.98 mbar 2.03 m/s 335.12 Deg 1.73 µg/m3
2022-09-27 20:00 21.48 µg/m3 0.04 µg/m3 60.37 µg/m3 29.11 µg/m3 9.31 µg/m3 23.92 °C 82.71 % 1,003.49 mbar 1.54 m/s 326.35 Deg 1.57 µg/m3
2022-09-27 19:00 23.83 µg/m3 0.03 µg/m3 62.64 µg/m3 25.86 µg/m3 7.17 µg/m3 24.25 °C 80.81 % 1,002.96 mbar 1.72 m/s 315.9 Deg 2.34 µg/m3
2022-09-27 18:00 19.4 µg/m3 0.01 µg/m3 68.54 µg/m3 18.66 µg/m3 7.26 µg/m3 24.82 °C 79.75 % 1,002.59 mbar 2.06 m/s 317.62 Deg 2.59 µg/m3
2022-09-27 17:00 16.59 µg/m3 0.04 µg/m3 73.35 µg/m3 19.71 µg/m3 7.81 µg/m3 25.36 °C 77.32 % 1,002.55 mbar 2.39 m/s 314.22 Deg 2.46 µg/m3
2022-09-27 16:00 11.57 µg/m3 -0 µg/m3 79.99 µg/m3 18.16 µg/m3 7.74 µg/m3 25.93 °C 74.64 % 1,002.94 mbar 2.87 m/s 301.5 Deg 2.29 µg/m3
2022-09-27 15:00 12.87 µg/m3 0.01 µg/m3 77.31 µg/m3 27.43 µg/m3 4.63 µg/m3 25.76 °C 75.24 % 1,003.15 mbar 3.3 m/s 305.13 Deg 2.49 µg/m3
2022-09-27 14:00 13.42 µg/m3 0.04 µg/m3 76.89 µg/m3 31.11 µg/m3 6.37 µg/m3 26.38 °C 74.93 % 1,002.83 mbar 3 m/s 317.42 Deg 3.54 µg/m3
2022-09-27 13:00 15.86 µg/m3 0.08 µg/m3 69.33 µg/m3 30.68 µg/m3 6.2 µg/m3 26.02 °C 77.17 % 1,003.19 mbar 3.05 m/s 315.37 Deg 3.78 µg/m3
2022-09-27 12:00 13.53 µg/m3 0.03 µg/m3 71.87 µg/m3 32.75 µg/m3 6.03 µg/m3 26.43 °C 74.49 % 1,003.32 mbar 3.13 m/s 313.62 Deg 3.6 µg/m3
2022-09-27 11:00 13.26 µg/m3 0.07 µg/m3 72.06 µg/m3 27.55 µg/m3 8.48 µg/m3 26.5 °C 71.8 % 1,003.85 mbar 3.66 m/s 302.52 Deg 3.1 µg/m3
2022-09-27 10:00 13.73 µg/m3 0.06 µg/m3 72.67 µg/m3 33 µg/m3 13.36 µg/m3 26.78 °C 69.66 % 1,003.82 mbar 3.17 m/s 291.02 Deg 3.37 µg/m3
2022-09-27 09:00 17.88 µg/m3 0.09 µg/m3 66.99 µg/m3 43.58 µg/m3 14.81 µg/m3 25.94 °C 74.55 % 1,003.61 mbar 3.21 m/s 290.48 Deg 3.62 µg/m3
2022-09-27 08:00 29.27 µg/m3 0.13 µg/m3 52.78 µg/m3 47.16 µg/m3 7.39 µg/m3 25.59 °C 77.54 % 1,003.20 mbar 2.01 m/s 295.82 Deg 6.08 µg/m3
2022-09-27 07:00 56.6 µg/m3 0.16 µg/m3 21.19 µg/m3 23.45 µg/m3 4.32 µg/m3 24.07 °C 82.62 % 1,002.81 mbar 0.77 m/s 318.7 Deg 11.78 µg/m3
2022-09-27 06:00 44.42 µg/m3 0.07 µg/m3 25.33 µg/m3 19.5 µg/m3 4.65 µg/m3 23.51 °C 84.24 % 1,002.65 mbar 0.82 m/s 247.02 Deg 4.16 µg/m3
2022-09-27 05:00 23.75 µg/m3 0.02 µg/m3 42.45 µg/m3 18.27 µg/m3 5.54 µg/m3 23.94 °C 83.81 % 1,002.77 mbar 0.91 m/s 309.1 Deg 1.96 µg/m3
2022-09-27 04:00 9.81 µg/m3 0.12 µg/m3 64.06 µg/m3 24.25 µg/m3 7.52 µg/m3 24.19 °C 84.75 % 1,002.98 mbar 1.06 m/s 300.59 Deg 1.03 µg/m3
2022-09-27 03:00 5.63 µg/m3 -0.02 µg/m3 69.51 µg/m3 20.21 µg/m3 9.28 µg/m3 24.54 °C 82.37 % 1,003.15 mbar 1.29 m/s 303.62 Deg 0.88 µg/m3
2022-09-27 02:00 11.49 µg/m3 -0.03 µg/m3 66.17 µg/m3 24.3 µg/m3 12.15 µg/m3 25.01 °C 80.87 % 1,003.12 mbar 2.24 m/s 333.28 Deg 0.97 µg/m3
2022-09-27 01:00 13.41 µg/m3 -0 µg/m3 59.52 µg/m3 24.34 µg/m3 10.33 µg/m3 25.22 °C 82.05 % 1,003.21 mbar 2.71 m/s 339.12 Deg 1 µg/m3
2022-09-27 00:00 11.46 µg/m3 -0.02 µg/m3 61.8 µg/m3 37.9 µg/m3 14.16 µg/m3 25.28 °C 84.34 % 1,003.32 mbar 2.27 m/s 349.2 Deg 0.98 µg/m3
2022-09-26 23:00 6.26 µg/m3 -0 µg/m3 72.72 µg/m3 56.1 µg/m3 16.46 µg/m3 25.89 °C 89.18 % 1,003.35 mbar 2.46 m/s 326.4 Deg 0.93 µg/m3
2022-09-26 22:00 5.09 µg/m3 -0.03 µg/m3 85.04 µg/m3 53.65 µg/m3 17.71 µg/m3 26.35 °C 91.44 % 1,003.49 mbar 2.32 m/s 278.27 Deg 0.88 µg/m3
2022-09-26 21:00 6.56 µg/m3 -0.03 µg/m3 83.06 µg/m3 59.02 µg/m3 8.68 µg/m3 26.22 °C 91.25 % 1,003.43 mbar 2.35 m/s 256.22 Deg 0.92 µg/m3
2022-09-26 20:00 7.2 µg/m3 -0.03 µg/m3 79.64 µg/m3 38.36 µg/m3 12.15 µg/m3 26.16 °C 90.98 % 1,003.04 mbar 2.63 m/s 240.43 Deg 1.15 µg/m3
2022-09-26 19:00 4.55 µg/m3 -0.02 µg/m3 78.84 µg/m3 39.62 µg/m3 7.25 µg/m3 26.27 °C 86.55 % 1,002.60 mbar 4.13 m/s 228.6 Deg 1.06 µg/m3
2022-09-26 18:00 4.89 µg/m3 -0.04 µg/m3 74.19 µg/m3 33.68 µg/m3 9.82 µg/m3 26.76 °C 80.16 % 1,002.62 mbar 4.99 m/s 211.97 Deg 1.18 µg/m3
2022-09-26 17:00 5.02 µg/m3 -0.03 µg/m3 68.98 µg/m3 33.29 µg/m3 6.67 µg/m3 27.19 °C 77.2 % 1,002.57 mbar 5.62 m/s 202.1 Deg 1.35 µg/m3
2022-09-26 16:00 7.69 µg/m3 -0.03 µg/m3 67.85 µg/m3 29.89 µg/m3 7.91 µg/m3 27.41 °C 77.06 % 1,002.72 mbar 5.73 m/s 196.38 Deg 1.85 µg/m3
2022-09-26 15:00 8.3 µg/m3 0 µg/m3 67.71 µg/m3 29.91 µg/m3 8.68 µg/m3 27.43 °C 77.5 % 1,003.09 mbar 6.32 m/s 198.13 Deg 2.1 µg/m3
2022-09-26 14:00 9.64 µg/m3 0.01 µg/m3 66.36 µg/m3 32.56 µg/m3 13.05 µg/m3 27.44 °C 78.66 % 1,003.84 mbar 6.31 m/s 195.15 Deg 2.39 µg/m3
2022-09-26 13:00 10.21 µg/m3 0.02 µg/m3 64.72 µg/m3 39.99 µg/m3 10.95 µg/m3 27.2 °C 80.96 % 1,004.51 mbar 6.94 m/s 192.2 Deg 2.6 µg/m3
2022-09-26 12:00 8.94 µg/m3 -0.01 µg/m3 66.06 µg/m3 20.72 µg/m3 5.67 µg/m3 27.21 °C 81.23 % 1,005.30 mbar 6.37 m/s 194.35 Deg 2.39 µg/m3
2022-09-26 11:00 8.29 µg/m3 0.05 µg/m3 67.66 µg/m3 19.13 µg/m3 6.53 µg/m3 26.74 °C 81.06 % 1,005.63 mbar 6.5 m/s 197.93 Deg 1.87 µg/m3
2022-09-26 10:00 7.26 µg/m3 0.14 µg/m3 68.59 µg/m3 21.64 µg/m3 5.88 µg/m3 26.45 °C 81.58 % 1,006.07 mbar 5.34 m/s 197.35 Deg 1.62 µg/m3
2022-09-26 09:00 8.42 µg/m3 0.04 µg/m3 71.4 µg/m3 25.51 µg/m3 4.6 µg/m3 26.2 °C 80.5 % 1,006.12 mbar 6.33 m/s 200.05 Deg 1.76 µg/m3
2022-09-26 08:00 15.73 µg/m3 0.02 µg/m3 64.04 µg/m3 15.74 µg/m3 5.46 µg/m3 25.9 °C 79.26 % 1,005.70 mbar 6.49 m/s 189.28 Deg 2.52 µg/m3
2022-09-26 07:00 15.22 µg/m3 0.02 µg/m3 64.31 µg/m3 14.3 µg/m3 7.08 µg/m3 25.41 °C 79.56 % 1,005.65 mbar 5.44 m/s 186.17 Deg 1.59 µg/m3
2022-09-26 06:00 14.88 µg/m3 0.02 µg/m3 65.15 µg/m3 15.02 µg/m3 6.98 µg/m3 25.2 °C 80.13 % 1,005.79 mbar 5.16 m/s 182.83 Deg 1.34 µg/m3
2022-09-26 05:00 12.6 µg/m3 0.02 µg/m3 66.33 µg/m3 16.48 µg/m3 6.58 µg/m3 24.94 °C 84.15 % 1,005.97 mbar 4.81 m/s 183.8 Deg 1.03 µg/m3
2022-09-26 04:00 11.87 µg/m3 0.12 µg/m3 68.04 µg/m3 21.71 µg/m3 6.71 µg/m3 24.84 °C 81.11 % 1,006.43 mbar 4.59 m/s 181.48 Deg 1 µg/m3
2022-09-26 03:00 9.45 µg/m3 0.02 µg/m3 73.31 µg/m3 17.87 µg/m3 6.59 µg/m3 24.86 °C 75.42 % 1,007.06 mbar 4.26 m/s 178.17 Deg 0.99 µg/m3
2022-09-26 02:00 11.14 µg/m3 0 µg/m3 73.44 µg/m3 18.76 µg/m3 6.21 µg/m3 24.89 °C 75.31 % 1,007.76 mbar 4.72 m/s 181.63 Deg 0.97 µg/m3
2022-09-26 01:00 10.87 µg/m3 0.03 µg/m3 72.15 µg/m3 23.55 µg/m3 6.65 µg/m3 24.84 °C 76.04 % 1,008.38 mbar 4.36 m/s 177.6 Deg 1.01 µg/m3
2022-09-26 00:00 12.8 µg/m3 0.03 µg/m3 70.81 µg/m3 18.59 µg/m3 6.97 µg/m3 24.89 °C 75.59 % 1,008.72 mbar 4.85 m/s 186.02 Deg 1 µg/m3
2022-09-25 23:00 11.95 µg/m3 0.02 µg/m3 72.34 µg/m3 15.83 µg/m3 6.9 µg/m3 24.91 °C 74.94 % 1,009.01 mbar 5.28 m/s 179.7 Deg 0.97 µg/m3
2022-09-25 22:00 16.17 µg/m3 0.02 µg/m3 67.79 µg/m3 13.51 µg/m3 4.85 µg/m3 24.94 °C 74.37 % 1,009.26 mbar 5.18 m/s 184.35 Deg 1.03 µg/m3
2022-09-25 21:00 14.11 µg/m3 -0 µg/m3 69.82 µg/m3 17.04 µg/m3 5.11 µg/m3 24.94 °C 73.47 % 1,009.19 mbar 5.36 m/s 185.13 Deg 1.07 µg/m3
2022-09-25 20:00 21.74 µg/m3 0.03 µg/m3 62.63 µg/m3 17.68 µg/m3 5.12 µg/m3 25 °C 73.18 % 1,008.81 mbar 5.39 m/s 184.25 Deg 1.25 µg/m3
2022-09-25 19:00 13.88 µg/m3 -0.01 µg/m3 69.72 µg/m3 11.18 µg/m3 5.45 µg/m3 25.02 °C 73.24 % 1,008.37 mbar 5.23 m/s 182.57 Deg 1.16 µg/m3
2022-09-25 18:00 11.07 µg/m3 -0.01 µg/m3 72.67 µg/m3 11.21 µg/m3 4.66 µg/m3 25.2 °C 73.27 % 1,008.15 mbar 5.46 m/s 184.6 Deg 1.22 µg/m3
2022-09-25 17:00 10.23 µg/m3 0.02 µg/m3 74.71 µg/m3 14.73 µg/m3 5.84 µg/m3 25.57 °C 71.52 % 1,008.00 mbar 6.63 m/s 183.6 Deg 1.63 µg/m3
2022-09-25 16:00 8.44 µg/m3 0.03 µg/m3 76.46 µg/m3 17.13 µg/m3 7.02 µg/m3 25.75 °C 70.71 % 1,008.42 mbar 6.89 m/s 187.3 Deg 1.6 µg/m3
2022-09-25 15:00 9.39 µg/m3 -0.01 µg/m3 77.66 µg/m3 12.79 µg/m3 8.93 µg/m3 26.15 °C 68.83 % 1,008.68 mbar 6.69 m/s 178.15 Deg 1.9 µg/m3
2022-09-25 14:00 10.68 µg/m3 -0 µg/m3 78.45 µg/m3 11.25 µg/m3 5.95 µg/m3 26.36 °C 68.06 % 1,009.11 mbar 6.77 m/s 189.1 Deg 2.23 µg/m3
2022-09-25 13:00 11.28 µg/m3 -0 µg/m3 80.06 µg/m3 15.8 µg/m3 5.5 µg/m3 26.39 °C 68.19 % 1,009.60 mbar 6.71 m/s 183.63 Deg 2.31 µg/m3
2022-09-25 12:00 11.82 µg/m3 0.02 µg/m3 80.4 µg/m3 18.24 µg/m3 6.24 µg/m3 26.34 °C 66.99 % 1,009.97 mbar 6.84 m/s 181.15 Deg 2.29 µg/m3
2022-09-25 11:00 10.97 µg/m3 -0.02 µg/m3 80.9 µg/m3 17.92 µg/m3 5.75 µg/m3 26.01 °C 68.16 % 1,009.99 mbar 6.78 m/s 182.23 Deg 2.14 µg/m3
2022-09-25 10:00 10.69 µg/m3 -0.03 µg/m3 82.94 µg/m3 19.92 µg/m3 5.88 µg/m3 26.12 °C 67.61 % 1,010.29 mbar 6.29 m/s 180.47 Deg 2.18 µg/m3
2022-09-25 09:00 10.36 µg/m3 -0.01 µg/m3 81.75 µg/m3 13.33 µg/m3 5.25 µg/m3 25.7 °C 69.86 % 1,010.08 mbar 5.91 m/s 178.05 Deg 1.95 µg/m3
2022-09-25 08:00 10.81 µg/m3 -0.01 µg/m3 78.89 µg/m3 13.14 µg/m3 5.48 µg/m3 25.18 °C 71.32 % 1,009.99 mbar 5.43 m/s 178.82 Deg 1.7 µg/m3
2022-09-25 07:00 10.01 µg/m3 0.01 µg/m3 77.83 µg/m3 10.29 µg/m3 5.88 µg/m3 24.6 °C 73.38 % 1,009.87 mbar 4.53 m/s 174.55 Deg 1.2 µg/m3
2022-09-25 06:00 11.09 µg/m3 -0.01 µg/m3 76.7 µg/m3 8.66 µg/m3 6.09 µg/m3 24.35 °C 71.77 % 1,009.76 mbar 3.65 m/s 178 Deg 0.97 µg/m3
2022-09-25 05:00 16.7 µg/m3 0.01 µg/m3 70.01 µg/m3 9.54 µg/m3 5.5 µg/m3 24.19 °C 71.79 % 1,009.83 mbar 3.29 m/s 178.57 Deg 1.05 µg/m3
2022-09-25 04:00 10.83 µg/m3 0.1 µg/m3 75.39 µg/m3 11.48 µg/m3 5.01 µg/m3 24.07 °C 72.72 % 1,010.12 mbar 2.84 m/s 177.78 Deg 0.96 µg/m3
2022-09-25 03:00 12.23 µg/m3 -0 µg/m3 73.51 µg/m3 11.78 µg/m3 5.26 µg/m3 23.97 °C 73.89 % 1,010.57 mbar 2.51 m/s 182.08 Deg 0.95 µg/m3
2022-09-25 02:00 8.21 µg/m3 -0.02 µg/m3 74.68 µg/m3 14.87 µg/m3 5.63 µg/m3 23.56 °C 76.57 % 1,011.19 mbar 1.73 m/s 181.23 Deg 0.93 µg/m3
2022-09-25 01:00 22.14 µg/m3 0.02 µg/m3 64.65 µg/m3 12.62 µg/m3 2.88 µg/m3 23.31 °C 76.67 % 1,011.79 mbar 1.34 m/s 182.55 Deg 0.98 µg/m3
2022-09-25 00:00 7.79 µg/m3 0 µg/m3 77.12 µg/m3 16.07 µg/m3 2.88 µg/m3 23.4 °C 75.85 % 1,012.13 mbar 2.22 m/s 178.82 Deg 0.96 µg/m3
2022-09-24 23:00 4.12 µg/m3 0.04 µg/m3 80.15 µg/m3 22.24 µg/m3 2.88 µg/m3 23.19 °C 80.99 % 1,012.21 mbar 2.77 m/s 131.07 Deg 0.92 µg/m3
2022-09-24 22:00 6.13 µg/m3 0.01 µg/m3 77.96 µg/m3 18.48 µg/m3 2.88 µg/m3 22.92 °C 78.38 % 1,012.33 mbar 2.55 m/s 132.63 Deg 0.91 µg/m3
2022-09-24 21:00 5.12 µg/m3 -0.01 µg/m3 79.32 µg/m3 21.98 µg/m3 2.88 µg/m3 22.73 °C 77.19 % 1,012.36 mbar 2.43 m/s 134.92 Deg 0.91 µg/m3
2022-09-24 20:00 5.01 µg/m3 -0.01 µg/m3 81.22 µg/m3 29.35 µg/m3 2.88 µg/m3 22.75 °C 75.39 % 1,012.29 mbar 2.74 m/s 125.7 Deg 0.95 µg/m3
2022-09-24 19:00 5.95 µg/m3 0.05 µg/m3 81.43 µg/m3 21.07 µg/m3 2.88 µg/m3 22.74 °C 72.84 % 1,011.91 mbar 2.68 m/s 122.08 Deg 0.98 µg/m3
2022-09-24 18:00 5.4 µg/m3 -0 µg/m3 85.46 µg/m3 13.68 µg/m3 4.52 µg/m3 23.13 °C 69.28 % 1,012.03 mbar 2.94 m/s 135.2 Deg 1.02 µg/m3
2022-09-24 17:00 5.89 µg/m3 0.05 µg/m3 91.31 µg/m3 12.07 µg/m3 5.57 µg/m3 23.55 °C 64.26 % 1,012.12 mbar 3.86 m/s 132.5 Deg 1.14 µg/m3
2022-09-24 16:00 6.93 µg/m3 0.03 µg/m3 92.29 µg/m3 13.25 µg/m3 6.36 µg/m3 23.82 °C 58.98 % 1,012.38 mbar 4.1 m/s 136.92 Deg 1.31 µg/m3
2022-09-24 15:00 7.7 µg/m3 0.05 µg/m3 92.72 µg/m3 11.09 µg/m3 5.85 µg/m3 24.01 °C 54.34 % 1,012.55 mbar 3.99 m/s 130.17 Deg 1.46 µg/m3
2022-09-24 14:00 9.54 µg/m3 0.03 µg/m3 93.41 µg/m3 15.03 µg/m3 5.93 µg/m3 24.13 °C 50.79 % 1,013.07 mbar 4.28 m/s 135.18 Deg 1.63 µg/m3
2022-09-24 13:00 9.45 µg/m3 0.05 µg/m3 93.37 µg/m3 20.01 µg/m3 5.91 µg/m3 24.14 °C 49.49 % 1,013.55 mbar 4.26 m/s 136.58 Deg 1.61 µg/m3
2022-09-24 12:00 8.49 µg/m3 0.04 µg/m3 90.57 µg/m3 15.38 µg/m3 6.24 µg/m3 24.08 °C 50.59 % 1,013.96 mbar 4.24 m/s 139.98 Deg 1.5 µg/m3
2022-09-24 11:00 6.96 µg/m3 0.02 µg/m3 90.03 µg/m3 14.1 µg/m3 5.53 µg/m3 23.96 °C 52.69 % 1,014.03 mbar 4.02 m/s 163.05 Deg 1.34 µg/m3
2022-09-24 10:00 5.9 µg/m3 0.06 µg/m3 88.31 µg/m3 14.83 µg/m3 4.89 µg/m3 23.67 °C 55.07 % 1,013.84 mbar 4.7 m/s 155.85 Deg 1.28 µg/m3
2022-09-24 09:00 5.11 µg/m3 0.02 µg/m3 86.32 µg/m3 13.19 µg/m3 6.07 µg/m3 23.57 °C 51.41 % 1,013.55 mbar 4.14 m/s 191.2 Deg 1.11 µg/m3
2022-09-24 08:00 4.28 µg/m3 0.04 µg/m3 84.14 µg/m3 15.87 µg/m3 5.42 µg/m3 22.98 °C 51.74 % 1,013.16 mbar 3.24 m/s 175.22 Deg 0.98 µg/m3
2022-09-24 07:00 3.75 µg/m3 0.02 µg/m3 82.81 µg/m3 14.96 µg/m3 5.4 µg/m3 22.24 °C 55.75 % 1,012.71 mbar 2.8 m/s 215.55 Deg 0.85 µg/m3
2022-09-24 06:00 2.68 µg/m3 0.02 µg/m3 82.85 µg/m3 18.96 µg/m3 6.2 µg/m3 21.68 °C 57.81 % 1,012.40 mbar 2.85 m/s 176.77 Deg 0.74 µg/m3
2022-09-24 05:00 3.67 µg/m3 0.04 µg/m3 81.66 µg/m3 14.01 µg/m3 5.92 µg/m3 21.6 °C 57.98 % 1,012.11 mbar 2.73 m/s 261.28 Deg 0.91 µg/m3
2022-09-24 04:00 2.59 µg/m3 0.11 µg/m3 83.55 µg/m3 10.48 µg/m3 5.09 µg/m3 21.54 °C 58.52 % 1,011.94 mbar 2.57 m/s 214.97 Deg 0.74 µg/m3
2022-09-24 03:00 2.86 µg/m3 0.01 µg/m3 82.79 µg/m3 8 µg/m3 4 µg/m3 21.63 °C 59.5 % 1,012.03 mbar 2.33 m/s 204.35 Deg 0.72 µg/m3
2022-09-24 02:00 2.27 µg/m3 0 µg/m3 82.54 µg/m3 7.61 µg/m3 3.84 µg/m3 21.69 °C 58.02 % 1,012.33 mbar 1.75 m/s 221.58 Deg 0.75 µg/m3
2022-09-24 01:00 2.74 µg/m3 -0.01 µg/m3 81.62 µg/m3 10 µg/m3 2.88 µg/m3 21.7 °C 59.21 % 1,012.40 mbar 2 m/s 237.5 Deg 0.74 µg/m3
2022-09-24 00:00 3 µg/m3 -0.02 µg/m3 81.5 µg/m3 11.6 µg/m3 2.88 µg/m3 21.74 °C 59.83 % 1,012.34 mbar 1.71 m/s 323.07 Deg 0.78 µg/m3
2022-09-23 23:00 4.17 µg/m3 0 µg/m3 80.94 µg/m3 10.84 µg/m3 2.88 µg/m3 21.86 °C 59.21 % 1,012.42 mbar 1.65 m/s 35.4 Deg 0.75 µg/m3
2022-09-23 22:00 4.3 µg/m3 0 µg/m3 83.09 µg/m3 10.6 µg/m3 2.88 µg/m3 21.71 °C 59.85 % 1,012.11 mbar 2.02 m/s 41.83 Deg 0.8 µg/m3
2022-09-23 21:00 4.3 µg/m3 -0.02 µg/m3 82.32 µg/m3 14.43 µg/m3 2.89 µg/m3 21.6 °C 60.81 % 1,011.54 mbar 1.83 m/s 176.02 Deg 0.76 µg/m3
2022-09-23 20:00 4.65 µg/m3 0 µg/m3 82.52 µg/m3 11.04 µg/m3 2.89 µg/m3 21.73 °C 59.76 % 1,010.95 mbar 2.66 m/s 182.25 Deg 0.81 µg/m3
2022-09-23 19:00 5.51 µg/m3 -0.03 µg/m3 80.84 µg/m3 12.5 µg/m3 2.91 µg/m3 21.87 °C 60.3 % 1,010.33 mbar 2.66 m/s 329.37 Deg 0.83 µg/m3
2022-09-23 18:00 4.89 µg/m3 -0.03 µg/m3 80.02 µg/m3 12.86 µg/m3 2.92 µg/m3 22.29 °C 62.71 % 1,009.84 mbar 2.58 m/s 313.95 Deg 0.92 µg/m3
2022-09-23 17:00 4.76 µg/m3 0 µg/m3 78.58 µg/m3 13.11 µg/m3 2.96 µg/m3 22.54 °C 66.16 % 1,009.62 mbar 2.7 m/s 161.25 Deg 1.1 µg/m3
2022-09-23 16:00 4.88 µg/m3 -0 µg/m3 77.44 µg/m3 20.36 µg/m3 3.03 µg/m3 22.56 °C 69.43 % 1,009.49 mbar 3.51 m/s 318.77 Deg 1.36 µg/m3
2022-09-23 15:00 4.24 µg/m3 0 µg/m3 78.84 µg/m3 15.94 µg/m3 3.18 µg/m3 22.59 °C 71.66 % 1,009.43 mbar 4.22 m/s 335.25 Deg 1.38 µg/m3
2022-09-23 14:00 4.47 µg/m3 -0.02 µg/m3 80.57 µg/m3 11.52 µg/m3 3.47 µg/m3 23.31 °C 70.1 % 1,009.25 mbar 4.52 m/s 160.65 Deg 1.37 µg/m3
2022-09-23 13:00 4.79 µg/m3 -0.01 µg/m3 81.43 µg/m3 10.31 µg/m3 4.06 µg/m3 24.08 °C 61.98 % 1,009.20 mbar 3.78 m/s 263.28 Deg 2.2 µg/m3
2022-09-23 12:00 3.46 µg/m3 -0.04 µg/m3 81.62 µg/m3 12.31 µg/m3 5.23 µg/m3 23.71 °C 64.6 % 1,009.10 mbar 4.36 m/s 220.18 Deg 1.17 µg/m3
2022-09-23 11:00 4.94 µg/m3 0.01 µg/m3 79.25 µg/m3 13.68 µg/m3 7.57 µg/m3 23.32 °C 67.43 % 1,008.73 mbar 3.86 m/s 250.82 Deg 3.78 µg/m3
2022-09-23 10:00 1.74 µg/m3 -0.04 µg/m3 81.43 µg/m3 16.24 µg/m3 12.25 µg/m3 22.98 °C 69.23 % 1,008.27 mbar 5.25 m/s 188.8 Deg 0.9 µg/m3
2022-09-23 09:00 2.29 µg/m3 -0.05 µg/m3 79.58 µg/m3 23.02 µg/m3 21.62 µg/m3 22.57 °C 70.42 % 1,007.71 mbar 4.72 m/s 255.87 Deg 0.96 µg/m3
2022-09-23 08:00 7.1 µg/m3 0.01 µg/m3 75.86 µg/m3 11.95 µg/m3 40.37 µg/m3 21.98 °C 71 % 1,007.36 mbar 3.8 m/s 94.53 Deg 6.17 µg/m3
2022-09-23 07:00 3.93 µg/m3 -0.03 µg/m3 76.06 µg/m3 7.39 µg/m3 N/A 21.41 °C 77.86 % 1,006.33 mbar 4.13 m/s 331.15 Deg 0.97 µg/m3
2022-09-23 06:00 1.77 µg/m3 -0.05 µg/m3 76.73 µg/m3 7.87 µg/m3 N/A 20.91 °C 86.16 % 1,005.62 mbar 4.07 m/s 222.65 Deg 0.77 µg/m3
2022-09-23 05:00 0.6 µg/m3 -0.06 µg/m3 76.61 µg/m3 7.53 µg/m3 N/A 20.63 °C 89.03 % 1,005.85 mbar 6.65 m/s 141.12 Deg 0.71 µg/m3
2022-09-23 04:00 0.77 µg/m3 0.05 µg/m3 77.91 µg/m3 8.06 µg/m3 N/A 19.98 °C 94.08 % 1,005.85 mbar 6.35 m/s 161.25 Deg 0.71 µg/m3
2022-09-23 03:00 1.06 µg/m3 -0.05 µg/m3 78.91 µg/m3 10.27 µg/m3 5.65 µg/m3 19.04 °C 98.1 % 1,006.05 mbar 4.29 m/s 278.53 Deg 0.68 µg/m3
2022-09-23 02:00 0.28 µg/m3 -0.04 µg/m3 83.56 µg/m3 10.77 µg/m3 4.74 µg/m3 17.9 °C 99.9 % 1,006.93 mbar 4.53 m/s 179.1 Deg 0.68 µg/m3
2022-09-23 01:00 0.11 µg/m3 -0.09 µg/m3 80.83 µg/m3 9.28 µg/m3 4.43 µg/m3 18.49 °C 99.91 % 1,007.16 mbar 5.18 m/s 186.98 Deg 0.7 µg/m3
2022-09-23 00:00 0.07 µg/m3 -0.06 µg/m3 81.57 µg/m3 9.67 µg/m3 5.97 µg/m3 18.77 °C 99.87 % 1,007.25 mbar 5.57 m/s 130.8 Deg 0.73 µg/m3
2022-09-22 23:00 0.47 µg/m3 -0.03 µg/m3 78.06 µg/m3 8.02 µg/m3 5.54 µg/m3 19.78 °C 99.92 % 1,007.12 mbar 5.95 m/s 129.23 Deg 0.75 µg/m3
2022-09-22 22:00 0.84 µg/m3 -0.06 µg/m3 77.02 µg/m3 8.01 µg/m3 6.45 µg/m3 20.6 °C 96.78 % 1,007.00 mbar 4.17 m/s 236.3 Deg 0.78 µg/m3
2022-09-22 21:00 1.31 µg/m3 -0.05 µg/m3 76.22 µg/m3 8.15 µg/m3 6.02 µg/m3 22.3 °C 86.06 % 1,006.65 mbar 5.92 m/s 123.27 Deg 0.84 µg/m3
2022-09-22 20:00 1.42 µg/m3 -0.01 µg/m3 76.47 µg/m3 11.2 µg/m3 6.76 µg/m3 22.26 °C 81.51 % 1,006.62 mbar 5.12 m/s 117 Deg 0.85 µg/m3
2022-09-22 19:00 1.43 µg/m3 0 µg/m3 77.56 µg/m3 14.38 µg/m3 6.65 µg/m3 21.77 °C 80.98 % 1,006.85 mbar 4.83 m/s 122.63 Deg 0.84 µg/m3
2022-09-22 18:00 2.24 µg/m3 -0.04 µg/m3 75.84 µg/m3 18.92 µg/m3 6 µg/m3 20.82 °C 88.89 % 1,007.30 mbar 4.1 m/s 117.62 Deg 0.84 µg/m3
2022-09-22 17:00 4.04 µg/m3 0.02 µg/m3 72.65 µg/m3 13.22 µg/m3 7.27 µg/m3 20.32 °C 96.25 % 1,007.63 mbar 3.56 m/s 138.82 Deg 0.91 µg/m3
2022-09-22 16:00 15.69 µg/m3 -0.02 µg/m3 60.48 µg/m3 9.39 µg/m3 9.38 µg/m3 19.21 °C 99.92 % 1,008.32 mbar 0.98 m/s 217.67 Deg 1.44 µg/m3
2022-09-22 15:00 19.66 µg/m3 0 µg/m3 58.43 µg/m3 8.31 µg/m3 5.17 µg/m3 19.18 °C 99.23 % 1,008.97 mbar 1.24 m/s 249.16 Deg 2.11 µg/m3
2022-09-22 14:00 9.89 µg/m3 0 µg/m3 67.63 µg/m3 11.06 µg/m3 6.81 µg/m3 20.19 °C 90.91 % 1,009.03 mbar 1.66 m/s 197.62 Deg 1.1 µg/m3
2022-09-22 13:00 2.64 µg/m3 -0.03 µg/m3 72.91 µg/m3 15.85 µg/m3 9.58 µg/m3 21.7 °C 83.9 % 1,008.73 mbar 3.01 m/s 160.75 Deg 0.99 µg/m3
2022-09-22 12:00 0.88 µg/m3 -0.03 µg/m3 74.11 µg/m3 20.89 µg/m3 4.7 µg/m3 22.08 °C 89.25 % 1,008.69 mbar 5.5 m/s 127 Deg 0.81 µg/m3
2022-09-22 11:00 1.15 µg/m3 -0.04 µg/m3 74.2 µg/m3 32.92 µg/m3 5.79 µg/m3 22.2 °C 90.53 % 1,007.52 mbar 7.3 m/s 154.48 Deg 0.85 µg/m3
2022-09-22 10:00 1.43 µg/m3 -0.03 µg/m3 76.16 µg/m3 22.02 µg/m3 6.19 µg/m3 22.62 °C 90.39 % 1,008.24 mbar 6.13 m/s 130.3 Deg 0.8 µg/m3
2022-09-22 09:00 0.94 µg/m3 -0.02 µg/m3 79.11 µg/m3 14.37 µg/m3 6.29 µg/m3 24.13 °C 79.65 % 1,007.20 mbar 6.85 m/s 142.5 Deg 0.74 µg/m3
2022-09-22 08:00 0.95 µg/m3 -0.03 µg/m3 80.1 µg/m3 13.42 µg/m3 7.92 µg/m3 24.35 °C 77.09 % 1,006.73 mbar 6.52 m/s 170.2 Deg 0.75 µg/m3
2022-09-22 07:00 1.79 µg/m3 -0.04 µg/m3 78.68 µg/m3 14.62 µg/m3 8.75 µg/m3 24.1 °C 79.79 % 1,006.41 mbar 5.83 m/s 207.52 Deg 0.77 µg/m3
2022-09-22 06:00 1.86 µg/m3 -0.05 µg/m3 77.58 µg/m3 20.82 µg/m3 8.19 µg/m3 23.92 °C 83.52 % 1,006.43 mbar 4.48 m/s 266.53 Deg 0.77 µg/m3
2022-09-22 05:00 0.81 µg/m3 -0.03 µg/m3 78.04 µg/m3 16.39 µg/m3 7.69 µg/m3 23.94 °C 84.98 % 1,006.21 mbar 4.67 m/s 216.07 Deg 0.72 µg/m3
2022-09-22 04:00 1.65 µg/m3 0.12 µg/m3 77.87 µg/m3 16.92 µg/m3 4.95 µg/m3 23.8 °C 85.59 % 1,006.10 mbar 3.39 m/s 289.83 Deg 0.79 µg/m3
2022-09-22 03:00 0.79 µg/m3 0.06 µg/m3 77.99 µg/m3 18.31 µg/m3 5.89 µg/m3 24.4 °C 84.68 % 1,006.09 mbar 3.55 m/s 246.77 Deg 0.72 µg/m3
2022-09-22 02:00 2.27 µg/m3 0.01 µg/m3 77.49 µg/m3 20.55 µg/m3 5.91 µg/m3 24.6 °C 83.32 % 1,006.45 mbar 2.73 m/s 285.2 Deg 0.77 µg/m3
2022-09-22 01:00 21.39 µg/m3 0.11 µg/m3 54.63 µg/m3 16.19 µg/m3 7.73 µg/m3 24.74 °C 74.93 % 1,006.79 mbar 0.92 m/s 99.72 Deg 1.01 µg/m3
2022-09-22 00:00 27.82 µg/m3 0.04 µg/m3 45.54 µg/m3 20.81 µg/m3 7.98 µg/m3 24.75 °C 73.43 % 1,007.57 mbar 0.7 m/s 185.87 Deg 1.12 µg/m3
2022-09-21 23:00 28.46 µg/m3 0.04 µg/m3 53.9 µg/m3 23.19 µg/m3 6.32 µg/m3 24.77 °C 73.11 % 1,007.82 mbar 0.61 m/s 201.34 Deg 1.09 µg/m3
2022-09-21 22:00 19.7 µg/m3 -0 µg/m3 67.35 µg/m3 24.89 µg/m3 5.78 µg/m3 24.73 °C 72.74 % 1,007.63 mbar 0.33 m/s 190.34 Deg 1.22 µg/m3
2022-09-21 21:00 6.43 µg/m3 0.07 µg/m3 74.65 µg/m3 18.81 µg/m3 7.24 µg/m3 24.79 °C 72.43 % 1,007.35 mbar 0.68 m/s 163.57 Deg 0.91 µg/m3
2022-09-21 20:00 5.91 µg/m3 0 µg/m3 84.53 µg/m3 18.1 µg/m3 8.49 µg/m3 25.04 °C 72.93 % 1,006.87 mbar 1.08 m/s 113.18 Deg 0.77 µg/m3
2022-09-21 19:00 11.91 µg/m3 0.04 µg/m3 86.92 µg/m3 24.33 µg/m3 6.11 µg/m3 25.46 °C 75.06 % 1,006.50 mbar 1.86 m/s 108.97 Deg 1.09 µg/m3
2022-09-21 18:00 8.13 µg/m3 0.03 µg/m3 93.35 µg/m3 16.1 µg/m3 6.07 µg/m3 25.8 °C 73.62 % 1,006.04 mbar 2.22 m/s 37.1 Deg 1.95 µg/m3
2022-09-21 17:00 6.88 µg/m3 0.03 µg/m3 87.76 µg/m3 17.9 µg/m3 5.08 µg/m3 26.22 °C 70.72 % 1,005.91 mbar 2.74 m/s 107.68 Deg 1.05 µg/m3
2022-09-21 16:00 2.05 µg/m3 0.03 µg/m3 83.46 µg/m3 12.41 µg/m3 4.09 µg/m3 26.74 °C 68.69 % 1,005.80 mbar 2.48 m/s 226.23 Deg 0.98 µg/m3
2022-09-21 15:00 1.2 µg/m3 -0.03 µg/m3 84.91 µg/m3 10.34 µg/m3 5.29 µg/m3 26.72 °C 68.24 % 1,005.98 mbar 2.11 m/s 251.35 Deg 0.9 µg/m3
2022-09-21 14:00 1.74 µg/m3 -0 µg/m3 88.78 µg/m3 13.62 µg/m3 4.91 µg/m3 26.4 °C 69.04 % 1,006.34 mbar 2.21 m/s 171.88 Deg 0.91 µg/m3
2022-09-21 13:00 5.86 µg/m3 0.01 µg/m3 91.04 µg/m3 20.91 µg/m3 6.4 µg/m3 26.69 °C 67.39 % 1,006.42 mbar 2.47 m/s 104.68 Deg 1.44 µg/m3
2022-09-21 12:00 7.49 µg/m3 0.06 µg/m3 90.61 µg/m3 17.58 µg/m3 6.99 µg/m3 27.15 °C 65.7 % 1,006.36 mbar 1.86 m/s 157.07 Deg 1.36 µg/m3
2022-09-21 11:00 7.59 µg/m3 0.05 µg/m3 86.46 µg/m3 19.76 µg/m3 6.48 µg/m3 27.23 °C 64.4 % 1,006.59 mbar 2.04 m/s 166.45 Deg 1.79 µg/m3
2022-09-21 10:00 9.41 µg/m3 0.09 µg/m3 77.69 µg/m3 24.17 µg/m3 7.97 µg/m3 26.59 °C 68.11 % 1,006.87 mbar 2.81 m/s 14.47 Deg 2.66 µg/m3
2022-09-21 09:00 18.42 µg/m3 0.24 µg/m3 64.64 µg/m3 41.03 µg/m3 9.94 µg/m3 26.36 °C 70.34 % 1,006.62 mbar 1.87 m/s 346.1 Deg 4.31 µg/m3
2022-09-21 08:00 40.47 µg/m3 0.3 µg/m3 38.43 µg/m3 31.78 µg/m3 11.73 µg/m3 25.49 °C 75.17 % 1,006.23 mbar 1.47 m/s 323.6 Deg 10.4 µg/m3
2022-09-21 07:00 38.62 µg/m3 0.16 µg/m3 31.16 µg/m3 42.67 µg/m3 13.23 µg/m3 23.95 °C 86.28 % 1,006.07 mbar 1.4 m/s 318.98 Deg 6.6 µg/m3
2022-09-21 06:00 37.2 µg/m3 0.14 µg/m3 29.61 µg/m3 26.42 µg/m3 6.85 µg/m3 24.03 °C 88.55 % 1,005.77 mbar 1.31 m/s 303.28 Deg 4.43 µg/m3
2022-09-21 05:00 36.22 µg/m3 0.17 µg/m3 26.13 µg/m3 28.3 µg/m3 7.52 µg/m3 24.32 °C 86.42 % 1,005.53 mbar 1.13 m/s 330.18 Deg 2.37 µg/m3
2022-09-21 04:00 29.14 µg/m3 0.27 µg/m3 38.54 µg/m3 22.71 µg/m3 7.66 µg/m3 24.73 °C 84.07 % 1,005.63 mbar 0.9 m/s 309.07 Deg 1.29 µg/m3
2022-09-21 03:00 16.85 µg/m3 0.06 µg/m3 57.23 µg/m3 22.69 µg/m3 9.54 µg/m3 24.98 °C 82.1 % 1,005.73 mbar 0.65 m/s 323.95 Deg 1.03 µg/m3
2022-09-21 02:00 10.66 µg/m3 0.08 µg/m3 60.03 µg/m3 19.04 µg/m3 7.86 µg/m3 24.92 °C 83.47 % 1,005.78 mbar 0.83 m/s 345.33 Deg 0.89 µg/m3
2022-09-21 01:00 13.92 µg/m3 0.06 µg/m3 59.44 µg/m3 24.02 µg/m3 8.93 µg/m3 25.09 °C 83.16 % 1,006.10 mbar 0.94 m/s 261.57 Deg 0.93 µg/m3
2022-09-21 00:00 9.65 µg/m3 0.06 µg/m3 71.28 µg/m3 38.18 µg/m3 10.41 µg/m3 25.26 °C 82.92 % 1,006.26 mbar 1.18 m/s 23.98 Deg 0.86 µg/m3
2022-09-20 23:00 9.23 µg/m3 0.07 µg/m3 72.65 µg/m3 33.1 µg/m3 14.17 µg/m3 25.31 °C 83.57 % 1,006.63 mbar 0.59 m/s 22.12 Deg 0.83 µg/m3
2022-09-20 22:00 6.49 µg/m3 0.09 µg/m3 80.28 µg/m3 33.32 µg/m3 9.11 µg/m3 25.46 °C 83.27 % 1,006.52 mbar 1.13 m/s 31.07 Deg 1.89 µg/m3
2022-09-20 21:00 7.89 µg/m3 0.04 µg/m3 83.67 µg/m3 29.16 µg/m3 5.37 µg/m3 25.59 °C 82.48 % 1,006.25 mbar 1.36 m/s 31.98 Deg 1.04 µg/m3
2022-09-20 20:00 15.81 µg/m3 0.06 µg/m3 80.85 µg/m3 22.79 µg/m3 5.99 µg/m3 25.7 °C 81.13 % 1,005.96 mbar 1.12 m/s 37.72 Deg 1.06 µg/m3
2022-09-20 19:00 11.69 µg/m3 0 µg/m3 90.4 µg/m3 22.45 µg/m3 8.33 µg/m3 25.82 °C 80.05 % 1,005.55 mbar 1.01 m/s 112.12 Deg 0.89 µg/m3
2022-09-20 18:00 6.54 µg/m3 0.01 µg/m3 99.07 µg/m3 20.36 µg/m3 6.4 µg/m3 26.15 °C 80.6 % 1,004.76 mbar 2.32 m/s 42.73 Deg 0.96 µg/m3
2022-09-20 17:00 5.39 µg/m3 0 µg/m3 101.93 µg/m3 30.56 µg/m3 9.29 µg/m3 26.45 °C 81.81 % 1,004.87 mbar 2.23 m/s 184.63 Deg 1.14 µg/m3
2022-09-20 16:00 6.92 µg/m3 -0.01 µg/m3 95.36 µg/m3 33.83 µg/m3 6.17 µg/m3 26.27 °C 84.17 % 1,005.12 mbar 2.41 m/s 226.51 Deg 1.14 µg/m3
2022-09-20 15:00 6.18 µg/m3 0.02 µg/m3 94.53 µg/m3 26.36 µg/m3 5.89 µg/m3 26.23 °C 86.38 % 1,004.79 mbar 2.46 m/s 293.1 Deg 1.08 µg/m3
2022-09-20 14:00 2.23 µg/m3 -0 µg/m3 95.87 µg/m3 20.96 µg/m3 4.81 µg/m3 26.86 °C 83.11 % 1,005.55 mbar 2.97 m/s 157.62 Deg 1.03 µg/m3
2022-09-20 13:00 2.45 µg/m3 0.01 µg/m3 95.34 µg/m3 15.77 µg/m3 6.11 µg/m3 27.01 °C 82.27 % 1,005.65 mbar 3.49 m/s 156.57 Deg 1.17 µg/m3
2022-09-20 12:00 2.49 µg/m3 0.01 µg/m3 89.74 µg/m3 18.12 µg/m3 8.58 µg/m3 26.95 °C 82.25 % 1,005.44 mbar 4.12 m/s 163.15 Deg 1.01 µg/m3
2022-09-20 11:00 8.26 µg/m3 0.04 µg/m3 78.56 µg/m3 24.17 µg/m3 12.47 µg/m3 27.5 °C 80.2 % 1,006.43 mbar 2.21 m/s 68.46 Deg 2.37 µg/m3
2022-09-20 10:00 8.54 µg/m3 0.07 µg/m3 76.28 µg/m3 38.16 µg/m3 12.14 µg/m3 27.19 °C 80.55 % 1,005.71 mbar 3 m/s 25.05 Deg 2.65 µg/m3
2022-09-20 09:00 8.76 µg/m3 0.13 µg/m3 73.03 µg/m3 54.48 µg/m3 15.02 µg/m3 27.03 °C 81.15 % 1,005.58 mbar 1.96 m/s 30.62 Deg 2.41 µg/m3
2022-09-20 08:00 28.5 µg/m3 0.3 µg/m3 46.69 µg/m3 69.8 µg/m3 22.06 µg/m3 26.15 °C 89.02 % 1,005.15 mbar 2.39 m/s 26.45 Deg 13.59 µg/m3
2022-09-20 07:00 63.35 µg/m3 0.5 µg/m3 4.76 µg/m3 50.79 µg/m3 12.15 µg/m3 25.03 °C 91.86 % 1,005.51 mbar 1.22 m/s 168.83 Deg 34.63 µg/m3
2022-09-20 06:00 59.13 µg/m3 0.43 µg/m3 1.58 µg/m3 31.73 µg/m3 7.43 µg/m3 24.63 °C 90.57 % 1,005.55 mbar 0.97 m/s 313 Deg 30.54 µg/m3
2022-09-20 05:00 44.71 µg/m3 0.24 µg/m3 7.79 µg/m3 30.06 µg/m3 8.56 µg/m3 24.67 °C 89.58 % 1,005.32 mbar 1.32 m/s 330.97 Deg 10.26 µg/m3
2022-09-20 04:00 16.46 µg/m3 0.16 µg/m3 42.85 µg/m3 24.92 µg/m3 12.11 µg/m3 24.99 °C 91.98 % 1,004.98 mbar 0.9 m/s 310.45 Deg 1.86 µg/m3
2022-09-20 03:00 5.59 µg/m3 -0.01 µg/m3 65.23 µg/m3 27.56 µg/m3 10.43 µg/m3 25.23 °C 93.07 % 1,005.03 mbar 0.35 m/s 218.57 Deg 0.8 µg/m3
2022-09-20 02:00 4.44 µg/m3 -0 µg/m3 69.27 µg/m3 28.69 µg/m3 9.22 µg/m3 25.36 °C 90.05 % 1,005.04 mbar 0.61 m/s 143.93 Deg 0.81 µg/m3
2022-09-20 01:00 9.21 µg/m3 0.01 µg/m3 65.72 µg/m3 29.87 µg/m3 11.08 µg/m3 25.53 °C 85.73 % 1,005.41 mbar 0.72 m/s 125.77 Deg 0.84 µg/m3
2022-09-20 00:00 9.28 µg/m3 0.02 µg/m3 65.06 µg/m3 24.81 µg/m3 6.79 µg/m3 25.45 °C 81.3 % 1,005.47 mbar 1.09 m/s 79.78 Deg 0.8 µg/m3
2022-09-19 23:00 12.28 µg/m3 0 µg/m3 67.5 µg/m3 25.65 µg/m3 9.03 µg/m3 25.96 °C 75.96 % 1,006.60 mbar 0.74 m/s 202.44 Deg 0.82 µg/m3
2022-09-19 22:00 8.86 µg/m3 0 µg/m3 81.62 µg/m3 20.86 µg/m3 4.26 µg/m3 26.05 °C 69.59 % 1,007.01 mbar 1.08 m/s 275.8 Deg 0.77 µg/m3
2022-09-19 21:00 4.82 µg/m3 0.03 µg/m3 83.06 µg/m3 23.77 µg/m3 5.64 µg/m3 26.08 °C 69.52 % 1,006.38 mbar 0.52 m/s 119.64 Deg 0.73 µg/m3
2022-09-19 20:00 4.09 µg/m3 0.01 µg/m3 84.01 µg/m3 37.07 µg/m3 4.59 µg/m3 26.27 °C 68.39 % 1,005.98 mbar 0.98 m/s 171.13 Deg 0.74 µg/m3
2022-09-19 19:00 7.72 µg/m3 -0.02 µg/m3 83.57 µg/m3 23.54 µg/m3 5.06 µg/m3 26.57 °C 66.03 % 1,005.29 mbar 1.38 m/s 127.67 Deg 0.98 µg/m3
2022-09-19 16:00 8.55 µg/m3 -0.06 µg/m3 85.21 µg/m3 14.08 µg/m3 4.76 µg/m3 29.03 °C 51.79 % 1,006.07 mbar 2.77 m/s 243.47 Deg 1.68 µg/m3
2022-09-19 15:00 5.13 µg/m3 0.01 µg/m3 89.15 µg/m3 16.37 µg/m3 5.7 µg/m3 29.17 °C 49.96 % 1,006.15 mbar 2.36 m/s 247.52 Deg 1.27 µg/m3
2022-09-19 14:00 4.21 µg/m3 0 µg/m3 91.62 µg/m3 23.42 µg/m3 5 µg/m3 28.76 °C 53.61 % 1,006.87 mbar 2.82 m/s 246.18 Deg 1.23 µg/m3
2022-09-19 13:00 2.59 µg/m3 -0.02 µg/m3 97.15 µg/m3 22.76 µg/m3 7.11 µg/m3 28.1 °C 59.25 % 1,007.44 mbar 3.13 m/s 219.75 Deg 0.98 µg/m3
2022-09-19 12:00 2.7 µg/m3 0.01 µg/m3 95.62 µg/m3 26.19 µg/m3 9.89 µg/m3 27.53 °C 62.27 % 1,007.65 mbar 3.66 m/s 212.03 Deg 1.03 µg/m3
2022-09-19 11:00 4.01 µg/m3 -0.02 µg/m3 93.5 µg/m3 29.78 µg/m3 12.97 µg/m3 27.35 °C 57.88 % 1,007.79 mbar 3.48 m/s 195.17 Deg 1.17 µg/m3
2022-09-19 10:00 8.24 µg/m3 0.03 µg/m3 87.67 µg/m3 40.11 µg/m3 11.51 µg/m3 26.99 °C 57.02 % 1,007.36 mbar 2.61 m/s 179.67 Deg 1.88 µg/m3
2022-09-19 09:00 14.19 µg/m3 0.07 µg/m3 79.58 µg/m3 50.84 µg/m3 15.75 µg/m3 26.61 °C 58.56 % 1,007.13 mbar 1.82 m/s 193.62 Deg 2.79 µg/m3
2022-09-19 08:00 61.3 µg/m3 0.25 µg/m3 36.69 µg/m3 52.56 µg/m3 6.38 µg/m3 25.33 °C 63.98 % 1,007.14 mbar 0.94 m/s 209.88 Deg 15.82 µg/m3
2022-09-19 07:00 72.96 µg/m3 0.33 µg/m3 17.19 µg/m3 39.61 µg/m3 6.24 µg/m3 23.84 °C 68.12 % 1,006.74 mbar 1 m/s 251.5 Deg 18.5 µg/m3
2022-09-19 06:00 66.87 µg/m3 0.22 µg/m3 24.9 µg/m3 26.55 µg/m3 7.41 µg/m3 23.48 °C 70.48 % 1,006.80 mbar 0.83 m/s 227.87 Deg 18.26 µg/m3
2022-09-19 05:00 26.46 µg/m3 0.07 µg/m3 54.22 µg/m3 31.61 µg/m3 8.28 µg/m3 23.14 °C 77.08 % 1,007.41 mbar 1.31 m/s 302.98 Deg 1.53 µg/m3
2022-09-19 04:00 15.07 µg/m3 0.19 µg/m3 63.48 µg/m3 37.91 µg/m3 8.12 µg/m3 23.29 °C 77.79 % 1,007.49 mbar 1.63 m/s 301.63 Deg 1.27 µg/m3
2022-09-19 03:00 9.32 µg/m3 0.06 µg/m3 69.35 µg/m3 20.13 µg/m3 11.02 µg/m3 23.47 °C 74.39 % 1,007.48 mbar 1.23 m/s 312.87 Deg 0.82 µg/m3
2022-09-19 02:00 10.91 µg/m3 0.07 µg/m3 67.29 µg/m3 18.72 µg/m3 9.5 µg/m3 23.53 °C 69.59 % 1,007.66 mbar 1.49 m/s 303.23 Deg 0.84 µg/m3
2022-09-19 01:00 22.23 µg/m3 0.08 µg/m3 54.25 µg/m3 25.68 µg/m3 12.09 µg/m3 23.79 °C 66.74 % 1,007.87 mbar 1.32 m/s 308.53 Deg 0.98 µg/m3
2022-09-19 00:00 23.68 µg/m3 0.07 µg/m3 57.78 µg/m3 33.39 µg/m3 7.72 µg/m3 24.33 °C 67.49 % 1,007.95 mbar 1.1 m/s 317.67 Deg 1.01 µg/m3
2022-09-18 23:00 12.04 µg/m3 0.04 µg/m3 77.36 µg/m3 33.73 µg/m3 7.05 µg/m3 24.77 °C 68.87 % 1,008.02 mbar 0.82 m/s 179.13 Deg 0.82 µg/m3
2022-09-18 22:00 10.66 µg/m3 0.03 µg/m3 81.89 µg/m3 32.85 µg/m3 9 µg/m3 24.9 °C 66.03 % 1,008.01 mbar 0.96 m/s 8.18 Deg 0.95 µg/m3
2022-09-18 21:00 9.55 µg/m3 0.03 µg/m3 85.13 µg/m3 25.91 µg/m3 10.3 µg/m3 25.02 °C 63.94 % 1,007.99 mbar 1.27 m/s 13.57 Deg 0.9 µg/m3
2022-09-18 20:00 9.87 µg/m3 0.05 µg/m3 90.14 µg/m3 23.81 µg/m3 7.17 µg/m3 25.18 °C 63.35 % 1,007.65 mbar 1.54 m/s 16.4 Deg 1.04 µg/m3
2022-09-18 19:00 13.24 µg/m3 0.07 µg/m3 85.44 µg/m3 34.76 µg/m3 8.02 µg/m3 25.37 °C 65.7 % 1,007.18 mbar 2.05 m/s 93.63 Deg 1.65 µg/m3
2022-09-18 18:00 7.02 µg/m3 0.05 µg/m3 92.44 µg/m3 34.34 µg/m3 6.55 µg/m3 25.76 °C 68.37 % 1,006.81 mbar 2.71 m/s 11.98 Deg 1.24 µg/m3
2022-09-18 17:00 4.02 µg/m3 0 µg/m3 91.15 µg/m3 28.7 µg/m3 6.57 µg/m3 26.46 °C 64.7 % 1,006.78 mbar 3.07 m/s 11.52 Deg 1.22 µg/m3
2022-09-18 16:00 3.36 µg/m3 -0.01 µg/m3 92.68 µg/m3 22.29 µg/m3 7.59 µg/m3 26.99 °C 62.76 % 1,006.75 mbar 3.93 m/s 13.8 Deg 1.32 µg/m3
2022-09-18 15:00 2.51 µg/m3 0.05 µg/m3 89.22 µg/m3 18.67 µg/m3 4.72 µg/m3 27.44 °C 62.44 % 1,006.60 mbar 3.77 m/s 10.82 Deg 1.08 µg/m3
2022-09-18 14:00 2.9 µg/m3 0.03 µg/m3 87.14 µg/m3 28.7 µg/m3 5.23 µg/m3 27.68 °C 56.65 % 1,006.66 mbar 4.06 m/s 7.53 Deg 1.16 µg/m3
2022-09-18 13:00 3.17 µg/m3 0.02 µg/m3 87.48 µg/m3 31.68 µg/m3 6.59 µg/m3 27.49 °C 64.56 % 1,006.63 mbar 4.39 m/s 18.7 Deg 1.29 µg/m3
2022-09-18 12:00 5.1 µg/m3 0.04 µg/m3 87.02 µg/m3 21.92 µg/m3 6.21 µg/m3 28.31 °C 59.1 % 1,006.40 mbar 3.55 m/s 180.88 Deg 1.56 µg/m3
2022-09-18 11:00 6.51 µg/m3 0.07 µg/m3 82.26 µg/m3 24.83 µg/m3 7.87 µg/m3 28.35 °C 55.6 % 1,006.64 mbar 3 m/s 260.18 Deg 1.84 µg/m3
2022-09-18 10:00 7.3 µg/m3 0.09 µg/m3 78.97 µg/m3 24.74 µg/m3 8.7 µg/m3 28.38 °C 52.12 % 1,006.37 mbar 2.33 m/s 318.28 Deg 1.83 µg/m3
2022-09-18 09:00 7.94 µg/m3 0.06 µg/m3 75.27 µg/m3 35.91 µg/m3 10.24 µg/m3 27.47 °C 57.87 % 1,005.83 mbar 2.17 m/s 321.62 Deg 1.8 µg/m3
2022-09-18 08:00 15.88 µg/m3 0.1 µg/m3 63.57 µg/m3 36.83 µg/m3 10.65 µg/m3 26.23 °C 70.89 % 1,005.56 mbar 1.8 m/s 316 Deg 2.86 µg/m3
2022-09-18 07:00 21.03 µg/m3 0.05 µg/m3 50.88 µg/m3 27.32 µg/m3 15.04 µg/m3 24.82 °C 77.48 % 1,004.95 mbar 1.07 m/s 282.8 Deg 1.96 µg/m3
2022-09-18 06:00 17.17 µg/m3 0.06 µg/m3 51.77 µg/m3 30.72 µg/m3 5.84 µg/m3 24.44 °C 79.56 % 1,004.44 mbar 1.32 m/s 307.08 Deg 1.17 µg/m3
2022-09-18 05:00 10.84 µg/m3 0.09 µg/m3 55.7 µg/m3 25.48 µg/m3 7.19 µg/m3 24.73 °C 79.9 % 1,004.25 mbar 1.3 m/s 306.88 Deg 0.9 µg/m3
2022-09-18 04:00 6.81 µg/m3 0.17 µg/m3 63.27 µg/m3 14.45 µg/m3 7.66 µg/m3 24.98 °C 80.02 % 1,004.16 mbar 1.22 m/s 308.22 Deg 0.85 µg/m3
2022-09-18 03:00 6.2 µg/m3 0.06 µg/m3 64.89 µg/m3 16.3 µg/m3 7.24 µg/m3 25.41 °C 78.42 % 1,003.95 mbar 1.53 m/s 310.73 Deg 0.88 µg/m3
2022-09-18 02:00 9.89 µg/m3 0.04 µg/m3 63.97 µg/m3 19.77 µg/m3 7.93 µg/m3 25.75 °C 78.02 % 1,003.84 mbar 1.68 m/s 326.55 Deg 1.07 µg/m3
2022-09-18 01:00 8.63 µg/m3 0.06 µg/m3 66.34 µg/m3 26.93 µg/m3 8.66 µg/m3 25.94 °C 77.29 % 1,003.98 mbar 2.05 m/s 325 Deg 0.86 µg/m3
2022-09-18 00:00 9.7 µg/m3 0.02 µg/m3 64.88 µg/m3 29.7 µg/m3 11.54 µg/m3 26.19 °C 76.78 % 1,003.94 mbar 2.59 m/s 326.78 Deg 1.08 µg/m3
2022-09-17 23:00 10.7 µg/m3 0.02 µg/m3 65.46 µg/m3 26.22 µg/m3 7.7 µg/m3 26.4 °C 75.11 % 1,003.72 mbar 2.59 m/s 332 Deg 1.12 µg/m3
2022-09-17 22:00 13.44 µg/m3 0.04 µg/m3 63.97 µg/m3 23.91 µg/m3 11.7 µg/m3 26.67 °C 69.61 % 1,003.45 mbar 2.5 m/s 332.72 Deg 1.39 µg/m3
2022-09-17 21:00 11.33 µg/m3 0.06 µg/m3 61.9 µg/m3 26.24 µg/m3 17.74 µg/m3 26.82 °C 71.79 % 1,003.16 mbar 2.89 m/s 328.3 Deg 1.37 µg/m3
2022-09-17 20:00 13.38 µg/m3 0.02 µg/m3 59.46 µg/m3 30.06 µg/m3 6.65 µg/m3 26.92 °C 76.34 % 1,002.69 mbar 2.63 m/s 339.7 Deg 1.87 µg/m3
2022-09-17 19:00 10.57 µg/m3 0.02 µg/m3 67.01 µg/m3 34.72 µg/m3 9.43 µg/m3 27.18 °C 76.6 % 1,002.27 mbar 3.27 m/s 335.18 Deg 1.74 µg/m3
2022-09-17 18:00 9.72 µg/m3 0.04 µg/m3 67.84 µg/m3 33.95 µg/m3 11.75 µg/m3 27.87 °C 74.34 % 1,002.02 mbar 3.03 m/s 325.87 Deg 1.93 µg/m3
2022-09-17 17:00 7.73 µg/m3 0.06 µg/m3 72.72 µg/m3 25.07 µg/m3 6.67 µg/m3 28.5 °C 72.78 % 1,001.96 mbar 3.43 m/s 315.18 Deg 1.91 µg/m3
2022-09-17 16:00 7.8 µg/m3 0.06 µg/m3 71.48 µg/m3 24.48 µg/m3 8.8 µg/m3 29.25 °C 67.98 % 1,001.75 mbar 3.11 m/s 308.93 Deg 2.2 µg/m3
2022-09-17 15:00 6.22 µg/m3 0.11 µg/m3 72.37 µg/m3 38.96 µg/m3 9.47 µg/m3 29.98 °C 59.45 % 1,002.01 mbar 3.47 m/s 315.1 Deg 2.02 µg/m3
2022-09-17 14:00 5.51 µg/m3 0.03 µg/m3 67.22 µg/m3 34.87 µg/m3 6.59 µg/m3 29.83 °C 69.05 % 1,002.40 mbar 3.67 m/s 295.63 Deg 1.75 µg/m3
2022-09-17 13:00 5.97 µg/m3 0.04 µg/m3 66.68 µg/m3 39.26 µg/m3 6.47 µg/m3 30.68 °C 61.05 % 1,002.70 mbar 4.11 m/s 297.27 Deg 2.38 µg/m3
2022-09-17 12:00 4.87 µg/m3 -0 µg/m3 67.45 µg/m3 28.05 µg/m3 6.37 µg/m3 29.96 °C 64.72 % 1,002.80 mbar 3.57 m/s 253.77 Deg 1.84 µg/m3
2022-09-17 11:00 6.46 µg/m3 0.07 µg/m3 66.79 µg/m3 35.12 µg/m3 7.02 µg/m3 29.93 °C 54.07 % 1,002.66 mbar 3.27 m/s 250.08 Deg 2.12 µg/m3
2022-09-17 10:00 6.66 µg/m3 0.02 µg/m3 64.58 µg/m3 37.49 µg/m3 8.62 µg/m3 28.41 °C 64.94 % 1,002.02 mbar 3.51 m/s 230.48 Deg 1.85 µg/m3
2022-09-17 09:00 20.63 µg/m3 0.06 µg/m3 50.82 µg/m3 18.45 µg/m3 5.71 µg/m3 28.47 °C 58.62 % 1,002.27 mbar 2.02 m/s 260.82 Deg 3.96 µg/m3
2022-09-17 08:00 21.97 µg/m3 0.07 µg/m3 48.41 µg/m3 16.78 µg/m3 5.84 µg/m3 27.57 °C 60.95 % 1,002.49 mbar 1.91 m/s 303.88 Deg 4.2 µg/m3
2022-09-17 07:00 20.27 µg/m3 0.09 µg/m3 47.01 µg/m3 18.39 µg/m3 4.64 µg/m3 26.77 °C 68.92 % 1,003.74 mbar 3.15 m/s 333.47 Deg 3.74 µg/m3
2022-09-17 06:00 33.28 µg/m3 0.09 µg/m3 14.15 µg/m3 23.22 µg/m3 4.76 µg/m3 24.71 °C 94.48 % 1,003.75 mbar 1.31 m/s 252.25 Deg 4.97 µg/m3
2022-09-17 05:00 17.41 µg/m3 0.11 µg/m3 27.14 µg/m3 12.89 µg/m3 4.42 µg/m3 24.67 °C 96.18 % 1,003.33 mbar 0.84 m/s 294.47 Deg 1.72 µg/m3
2022-09-17 04:00 6.96 µg/m3 6.36 µg/m3 36.34 µg/m3 12.5 µg/m3 5.15 µg/m3 24.95 °C 95.47 % 1,003.88 mbar 1.42 m/s 266.42 Deg 1.07 µg/m3
2022-09-17 03:00 9.77 µg/m3 0.05 µg/m3 33.98 µg/m3 18.17 µg/m3 6.69 µg/m3 25.25 °C 95.04 % 1,004.20 mbar 1.29 m/s 316.95 Deg 1.16 µg/m3
2022-09-17 02:00 7.11 µg/m3 0 µg/m3 40.38 µg/m3 15.95 µg/m3 6.27 µg/m3 25.56 °C 94.09 % 1,003.69 mbar 1.05 m/s 282.93 Deg 0.91 µg/m3
2022-09-17 01:00 4.22 µg/m3 -0.03 µg/m3 49.03 µg/m3 17.94 µg/m3 5.13 µg/m3 25.76 °C 93.2 % 1,003.88 mbar 1.14 m/s 292.87 Deg 0.92 µg/m3
2022-09-17 00:00 6.83 µg/m3 0.02 µg/m3 53 µg/m3 22.52 µg/m3 6.49 µg/m3 25.99 °C 91.82 % 1,003.48 mbar 2.4 m/s 219.25 Deg 0.85 µg/m3
2022-09-16 23:00 11.28 µg/m3 -0.01 µg/m3 51.05 µg/m3 32.53 µg/m3 8.31 µg/m3 26.14 °C 90.73 % 1,003.30 mbar 3.77 m/s 187.93 Deg 0.91 µg/m3
2022-09-16 22:00 8.65 µg/m3 -0.01 µg/m3 52.35 µg/m3 21.27 µg/m3 6.66 µg/m3 26.21 °C 89.97 % 1,003.52 mbar 3.33 m/s 186.83 Deg 0.83 µg/m3
2022-09-16 21:00 2.41 µg/m3 0.02 µg/m3 56.43 µg/m3 22.23 µg/m3 6.28 µg/m3 26.33 °C 88.37 % 1,003.90 mbar 2.61 m/s 202.37 Deg 0.76 µg/m3
2022-09-16 20:00 3.58 µg/m3 0.01 µg/m3 55.53 µg/m3 16.05 µg/m3 6.4 µg/m3 26.53 °C 86.57 % 1,003.56 mbar 2.69 m/s 199.77 Deg 0.81 µg/m3
2022-09-16 19:00 2.53 µg/m3 -0.01 µg/m3 57.9 µg/m3 17.81 µg/m3 5.99 µg/m3 26.78 °C 83.93 % 1,003.27 mbar 3.03 m/s 196.28 Deg 0.89 µg/m3
2022-09-16 18:00 3.21 µg/m3 0.01 µg/m3 59.75 µg/m3 15.55 µg/m3 6.67 µg/m3 27.42 °C 78.88 % 1,003.44 mbar 3.36 m/s 191.87 Deg 0.99 µg/m3
2022-09-16 17:00 1.36 µg/m3 0.02 µg/m3 61.29 µg/m3 18.68 µg/m3 7.67 µg/m3 28 °C 76.76 % 1,003.69 mbar 3.85 m/s 194.95 Deg 0.91 µg/m3
2022-09-16 16:00 1.52 µg/m3 0.01 µg/m3 64.67 µg/m3 18.5 µg/m3 4.28 µg/m3 28.68 °C 74.64 % 1,004.07 mbar 3.48 m/s 201.83 Deg 0.97 µg/m3
2022-09-16 15:00 2.01 µg/m3 0.02 µg/m3 65.14 µg/m3 17.37 µg/m3 4.53 µg/m3 29 °C 73 % 1,004.49 mbar 3.71 m/s 207.27 Deg 1.15 µg/m3
2022-09-16 14:00 2.52 µg/m3 0.02 µg/m3 68.34 µg/m3 24.9 µg/m3 4.83 µg/m3 29.27 °C 72.2 % 1,005.19 mbar 4.07 m/s 202.77 Deg 1.22 µg/m3
2022-09-16 13:00 5.15 µg/m3 0.04 µg/m3 74.55 µg/m3 16.91 µg/m3 4.86 µg/m3 29.59 °C 71.05 % 1,006.07 mbar 2.19 m/s 269.45 Deg 1.56 µg/m3
2022-09-16 12:00 7.59 µg/m3 0.05 µg/m3 76.45 µg/m3 14.79 µg/m3 5.11 µg/m3 28.84 °C 75.36 % 1,006.61 mbar 1.89 m/s 179.17 Deg 1.9 µg/m3
2022-09-16 11:00 5.53 µg/m3 0 µg/m3 70.52 µg/m3 18.75 µg/m3 5.72 µg/m3 29.23 °C 70.79 % 1,006.71 mbar 2.1 m/s 204.63 Deg 2.2 µg/m3
2022-09-16 10:00 6.56 µg/m3 0.15 µg/m3 69.23 µg/m3 15.92 µg/m3 6.26 µg/m3 28.59 °C 73.48 % 1,006.83 mbar 2.08 m/s 255.85 Deg 1.94 µg/m3
2022-09-16 09:00 7.09 µg/m3 0.06 µg/m3 68.51 µg/m3 20.19 µg/m3 6.29 µg/m3 27.62 °C 78.91 % 1,006.60 mbar 2.46 m/s 259.57 Deg 2.18 µg/m3
2022-09-16 08:00 2.36 µg/m3 -0.01 µg/m3 72.61 µg/m3 11.14 µg/m3 5.97 µg/m3 26.9 °C 81.55 % 1,005.71 mbar 3.64 m/s 207.3 Deg 1.01 µg/m3
2022-09-16 07:00 5.12 µg/m3 0 µg/m3 68.77 µg/m3 9.97 µg/m3 5.57 µg/m3 26.04 °C 84.14 % 1,005.77 mbar 2.6 m/s 206.1 Deg 0.97 µg/m3
2022-09-16 06:00 5.82 µg/m3 0 µg/m3 68.78 µg/m3 10.31 µg/m3 5.08 µg/m3 25.74 °C 84.95 % 1,005.42 mbar 3.37 m/s 198.12 Deg 0.83 µg/m3
2022-09-16 05:00 4.62 µg/m3 0.01 µg/m3 68.07 µg/m3 10.08 µg/m3 5.99 µg/m3 25.69 °C 84.53 % 1,005.46 mbar 3 m/s 197.37 Deg 0.83 µg/m3
2022-09-16 04:00 8.41 µg/m3 0.16 µg/m3 61.36 µg/m3 11.96 µg/m3 6.03 µg/m3 25.61 °C 86.35 % 1,005.86 mbar 2.61 m/s 190.97 Deg 0.85 µg/m3
2022-09-16 03:00 2.1 µg/m3 -0.02 µg/m3 58.14 µg/m3 12.98 µg/m3 7.91 µg/m3 25.33 °C 88.54 % 1,006.43 mbar 1.79 m/s 208.17 Deg 0.76 µg/m3
2022-09-16 02:00 2.27 µg/m3 -0.01 µg/m3 60.26 µg/m3 17.4 µg/m3 7.78 µg/m3 25.59 °C 88.28 % 1,006.82 mbar 1.41 m/s 231.95 Deg 0.79 µg/m3
2022-09-16 01:00 6.84 µg/m3 -0.03 µg/m3 61.74 µg/m3 22.87 µg/m3 7.85 µg/m3 25.95 °C 87.98 % 1,006.66 mbar 3.02 m/s 198.63 Deg 0.83 µg/m3
2022-09-16 00:00 9.21 µg/m3 -0.02 µg/m3 58.1 µg/m3 21.22 µg/m3 12.81 µg/m3 26.05 °C 87.65 % 1,006.85 mbar 3.41 m/s 191.97 Deg 0.88 µg/m3
2022-09-15 23:00 15.9 µg/m3 -0.04 µg/m3 51.46 µg/m3 29.23 µg/m3 7.96 µg/m3 26.12 °C 87.46 % 1,007.04 mbar 3.28 m/s 187.28 Deg 0.94 µg/m3
2022-09-15 22:00 10.78 µg/m3 -0.03 µg/m3 56.41 µg/m3 31.38 µg/m3 9.04 µg/m3 26.26 °C 86.41 % 1,007.18 mbar 3.37 m/s 190.25 Deg 0.91 µg/m3
2022-09-15 21:00 15.61 µg/m3 0.04 µg/m3 50.91 µg/m3 33.93 µg/m3 10.71 µg/m3 26.44 °C 85.56 % 1,007.23 mbar 2.9 m/s 186.15 Deg 1.02 µg/m3
2022-09-15 20:00 15.84 µg/m3 0.02 µg/m3 50.48 µg/m3 44.94 µg/m3 5.15 µg/m3 26.66 °C 84.35 % 1,006.86 mbar 2.59 m/s 190.28 Deg 1.07 µg/m3
2022-09-15 19:00 6.23 µg/m3 -0.01 µg/m3 55.82 µg/m3 51.3 µg/m3 6.72 µg/m3 26.94 °C 80.85 % 1,006.58 mbar 2.98 m/s 195.15 Deg 0.95 µg/m3
2022-09-15 18:00 2.5 µg/m3 0 µg/m3 60.72 µg/m3 29.96 µg/m3 6.6 µg/m3 27.46 °C 77.95 % 1,006.69 mbar 3.12 m/s 201.98 Deg 1.16 µg/m3
2022-09-15 17:00 1.9 µg/m3 0.02 µg/m3 61.77 µg/m3 19.48 µg/m3 6.32 µg/m3 28.07 °C 73.61 % 1,007.04 mbar 3.35 m/s 201.87 Deg 1.03 µg/m3
2022-09-15 16:00 2.38 µg/m3 0.01 µg/m3 62.8 µg/m3 13.41 µg/m3 6.62 µg/m3 28.64 °C 70.75 % 1,007.63 mbar 3.04 m/s 223.58 Deg 1.29 µg/m3
2022-09-15 15:00 1.41 µg/m3 0.01 µg/m3 63.74 µg/m3 16.13 µg/m3 5.98 µg/m3 28.41 °C 71.33 % 1,008.08 mbar 3.28 m/s 217 Deg 1.05 µg/m3
2022-09-15 14:00 1.36 µg/m3 0.02 µg/m3 64.09 µg/m3 14.76 µg/m3 6.57 µg/m3 28.49 °C 71.18 % 1,008.44 mbar 3.67 m/s 200.22 Deg 1.09 µg/m3
2022-09-15 13:00 1.17 µg/m3 0.02 µg/m3 64.85 µg/m3 19.32 µg/m3 5.73 µg/m3 28.32 °C 71.36 % 1,008.57 mbar 4.5 m/s 190.92 Deg 1.05 µg/m3
2022-09-15 12:00 1.42 µg/m3 0 µg/m3 66.93 µg/m3 13.32 µg/m3 6.62 µg/m3 28.13 °C 70.75 % 1,008.74 mbar 5.05 m/s 183.33 Deg 1.04 µg/m3
2022-09-15 11:00 3.5 µg/m3 0.01 µg/m3 68.48 µg/m3 12.42 µg/m3 9.17 µg/m3 28.02 °C 69.61 % 1,008.90 mbar 5.24 m/s 187.97 Deg 1.41 µg/m3
2022-09-15 10:00 4.71 µg/m3 -0.01 µg/m3 70.4 µg/m3 17.97 µg/m3 7.4 µg/m3 27.69 °C 69.85 % 1,009.31 mbar 4.81 m/s 182.77 Deg 1.59 µg/m3
2022-09-15 09:00 4.76 µg/m3 0.06 µg/m3 66.67 µg/m3 25.85 µg/m3 8.19 µg/m3 27.26 °C 73.63 % 1,009.04 mbar 3.65 m/s 192.98 Deg 1.48 µg/m3
2022-09-15 08:00 5.6 µg/m3 -0 µg/m3 63.63 µg/m3 43.8 µg/m3 12 µg/m3 26.59 °C 77.36 % 1,009.03 mbar 2.86 m/s 204.68 Deg 1.46 µg/m3
2022-09-15 07:00 20.25 µg/m3 0.06 µg/m3 45.7 µg/m3 23.48 µg/m3 5.18 µg/m3 25.48 °C 81.98 % 1,008.94 mbar 1.5 m/s 218.43 Deg 2.75 µg/m3
2022-09-15 06:00 11.9 µg/m3 0.02 µg/m3 52.28 µg/m3 17.71 µg/m3 5.5 µg/m3 25.06 °C 82.21 % 1,008.61 mbar 1.94 m/s 206.03 Deg 0.97 µg/m3
2022-09-15 05:00 11.86 µg/m3 0.03 µg/m3 50.01 µg/m3 15.97 µg/m3 6.15 µg/m3 24.81 °C 82.61 % 1,008.79 mbar 1.64 m/s 215.37 Deg 1.15 µg/m3
2022-09-15 04:00 6.24 µg/m3 0.15 µg/m3 57.44 µg/m3 10.61 µg/m3 5.23 µg/m3 25.02 °C 82.6 % 1,009.04 mbar 1.36 m/s 231.07 Deg 0.8 µg/m3
2022-09-15 03:00 3.06 µg/m3 -0.01 µg/m3 58.87 µg/m3 9.17 µg/m3 6.11 µg/m3 25.14 °C 81.5 % 1,009.16 mbar 1.31 m/s 237.03 Deg 0.74 µg/m3
2022-09-15 02:00 2.42 µg/m3 0.01 µg/m3 54.67 µg/m3 10.47 µg/m3 7.59 µg/m3 25.1 °C 80.21 % 1,009.30 mbar 1.69 m/s 220.68 Deg 0.74 µg/m3
2022-09-15 01:00 4.33 µg/m3 -0.01 µg/m3 53.46 µg/m3 15.16 µg/m3 7.31 µg/m3 25.39 °C 78.42 % 1,009.80 mbar 1.72 m/s 218.63 Deg 0.79 µg/m3
2022-09-15 00:00 5.2 µg/m3 0.03 µg/m3 52.16 µg/m3 21.79 µg/m3 9.42 µg/m3 25.59 °C 77.08 % 1,010.02 mbar 1.46 m/s 218.27 Deg 0.84 µg/m3
2022-09-14 23:00 9.65 µg/m3 0.02 µg/m3 48.98 µg/m3 20.78 µg/m3 8.86 µg/m3 25.82 °C 78.74 % 1,010.07 mbar 1.52 m/s 224.08 Deg 0.94 µg/m3
2022-09-14 22:00 21.97 µg/m3 0.04 µg/m3 38.03 µg/m3 27.38 µg/m3 5.75 µg/m3 26.12 °C 79.1 % 1,009.93 mbar 1.9 m/s 188.77 Deg 1.11 µg/m3
2022-09-14 21:00 23.33 µg/m3 0.02 µg/m3 35.4 µg/m3 37.56 µg/m3 6.3 µg/m3 26.3 °C 78.48 % 1,009.89 mbar 1.78 m/s 190.52 Deg 1.39 µg/m3
2022-09-14 20:00 10.01 µg/m3 0.03 µg/m3 48.1 µg/m3 27.17 µg/m3 5.55 µg/m3 26.52 °C 76.04 % 1,009.54 mbar 1.66 m/s 198 Deg 0.95 µg/m3
2022-09-14 19:00 4.31 µg/m3 0.01 µg/m3 54.77 µg/m3 22.55 µg/m3 6.02 µg/m3 26.83 °C 73.44 % 1,008.95 mbar 1.99 m/s 203.07 Deg 1.24 µg/m3
2022-09-14 18:00 3.49 µg/m3 -0.01 µg/m3 56.99 µg/m3 18.42 µg/m3 6.13 µg/m3 27.6 °C 68.9 % 1,008.98 mbar 2.43 m/s 212.67 Deg 1.02 µg/m3
2022-09-14 17:00 2.35 µg/m3 0.02 µg/m3 58.48 µg/m3 18.51 µg/m3 5.22 µg/m3 28.22 °C 66.52 % 1,009.02 mbar 2.94 m/s 211.47 Deg 1.08 µg/m3
2022-09-14 16:00 2.01 µg/m3 0.03 µg/m3 59.87 µg/m3 12.92 µg/m3 6.07 µg/m3 28.58 °C 64.79 % 1,009.47 mbar 2.87 m/s 201.42 Deg 1.17 µg/m3
2022-09-14 15:00 1.73 µg/m3 0.05 µg/m3 59.82 µg/m3 11.21 µg/m3 5.05 µg/m3 28.64 °C 64.03 % 1,009.83 mbar 3.28 m/s 221.43 Deg 1.14 µg/m3
2022-09-14 14:00 1.81 µg/m3 0.05 µg/m3 62 µg/m3 13.56 µg/m3 4.62 µg/m3 28.34 °C 65.65 % 1,010.11 mbar 3.57 m/s 219.63 Deg 1.05 µg/m3
2022-09-14 13:00 3.67 µg/m3 0.02 µg/m3 60.9 µg/m3 20.78 µg/m3 5.64 µg/m3 28.24 °C 67.62 % 1,010.00 mbar 3.49 m/s 194.72 Deg 1.58 µg/m3
2022-09-14 12:00 3.86 µg/m3 0.03 µg/m3 59.6 µg/m3 31.81 µg/m3 7.2 µg/m3 28.23 °C 66.94 % 1,009.88 mbar 3.75 m/s 185.75 Deg 1.56 µg/m3
2022-09-14 11:00 3.2 µg/m3 0.03 µg/m3 62.29 µg/m3 21.88 µg/m3 8.32 µg/m3 28.17 °C 66.92 % 1,010.12 mbar 3.31 m/s 191.62 Deg 2.07 µg/m3
2022-09-14 10:00 2.13 µg/m3 0.01 µg/m3 63.47 µg/m3 26.93 µg/m3 13.16 µg/m3 27.73 °C 70.73 % 1,010.08 mbar 3.13 m/s 181.12 Deg 1.16 µg/m3
2022-09-14 09:00 4.19 µg/m3 0.05 µg/m3 63 µg/m3 25.42 µg/m3 6.28 µg/m3 27.3 °C 72.66 % 1,009.64 mbar 1.96 m/s 193.87 Deg 1.4 µg/m3
2022-09-14 08:00 7.85 µg/m3 0.07 µg/m3 56.79 µg/m3 38.63 µg/m3 7.65 µg/m3 26.53 °C 76.32 % 1,008.97 mbar 1.66 m/s 194.4 Deg 1.8 µg/m3
2022-09-14 07:00 18.26 µg/m3 0.13 µg/m3 44.52 µg/m3 21.43 µg/m3 4.83 µg/m3 25.47 °C 79.87 % 1,008.73 mbar 1.19 m/s 213.77 Deg 2.48 µg/m3
2022-09-14 06:00 26.71 µg/m3 0.09 µg/m3 36.21 µg/m3 14.38 µg/m3 5.82 µg/m3 25.01 °C 80.79 % 1,008.62 mbar 1.41 m/s 214.23 Deg 2.64 µg/m3
2022-09-14 05:00 23.48 µg/m3 0.06 µg/m3 35.68 µg/m3 18.12 µg/m3 6.03 µg/m3 24.97 °C 80.29 % 1,008.54 mbar 1.3 m/s 225.22 Deg 2.61 µg/m3
2022-09-14 04:00 10.35 µg/m3 0.22 µg/m3 47.73 µg/m3 16.76 µg/m3 7.15 µg/m3 24.92 °C 81.92 % 1,008.46 mbar 1.5 m/s 215.35 Deg 0.94 µg/m3
2022-09-14 03:00 33.86 µg/m3 0 µg/m3 33.96 µg/m3 17.6 µg/m3 10.77 µg/m3 25.31 °C 81.68 % 1,008.46 mbar 1.11 m/s 219.22 Deg 1.13 µg/m3
2022-09-14 02:00 5.32 µg/m3 0.02 µg/m3 55.43 µg/m3 15.78 µg/m3 14.4 µg/m3 25.2 °C 81.16 % 1,008.55 mbar 0.42 m/s 201.53 Deg 0.75 µg/m3
2022-09-14 01:00 7.25 µg/m3 0.04 µg/m3 55.32 µg/m3 19.37 µg/m3 4.94 µg/m3 25.34 °C 80.87 % 1,008.74 mbar 0.32 m/s 162.65 Deg 0.77 µg/m3
2022-09-14 00:00 5.87 µg/m3 0.07 µg/m3 58.05 µg/m3 18.9 µg/m3 6.31 µg/m3 25.66 °C 79.39 % 1,008.63 mbar 0.39 m/s 196.81 Deg 0.77 µg/m3
2022-09-13 23:00 14.01 µg/m3 0.04 µg/m3 49.46 µg/m3 27.54 µg/m3 5.8 µg/m3 26.02 °C 77.54 % 1,008.43 mbar 0.5 m/s 309.32 Deg 0.85 µg/m3
2022-09-13 22:00 12.96 µg/m3 0.05 µg/m3 52.2 µg/m3 22.06 µg/m3 6.05 µg/m3 26.22 °C 76.24 % 1,008.27 mbar 0.75 m/s 248.1 Deg 0.97 µg/m3
2022-09-13 21:00 14.15 µg/m3 0.02 µg/m3 50.92 µg/m3 29.6 µg/m3 5.36 µg/m3 26.41 °C 74.36 % 1,008.10 mbar 0.85 m/s 296.38 Deg 1.1 µg/m3
2022-09-13 20:00 13.61 µg/m3 0.02 µg/m3 52.72 µg/m3 11.97 µg/m3 5.95 µg/m3 26.7 °C 71.51 % 1,007.54 mbar 1.18 m/s 263.63 Deg 1.09 µg/m3
2022-09-13 19:00 9.43 µg/m3 0.03 µg/m3 62.98 µg/m3 6.59 µg/m3 5 µg/m3 27.06 °C 71.45 % 1,006.83 mbar 1.1 m/s 300.85 Deg 0.97 µg/m3
2022-09-13 18:00 6.66 µg/m3 0 µg/m3 69.78 µg/m3 9.14 µg/m3 6.01 µg/m3 27.52 °C 70.85 % 1,006.48 mbar 1.21 m/s 148.02 Deg 1.14 µg/m3
2022-09-13 17:00 10.55 µg/m3 0.06 µg/m3 66.51 µg/m3 13.64 µg/m3 6.81 µg/m3 27.69 °C 69.95 % 1,006.52 mbar 1.77 m/s 94.33 Deg 3.89 µg/m3
2022-09-13 16:00 10.05 µg/m3 -0.01 µg/m3 61.38 µg/m3 10.13 µg/m3 6.77 µg/m3 28.16 °C 67.68 % 1,006.66 mbar 2.24 m/s 291.3 Deg 2.07 µg/m3
2022-09-13 15:00 2.84 µg/m3 0.01 µg/m3 63.32 µg/m3 6.9 µg/m3 6.98 µg/m3 28.74 °C 64.97 % 1,006.72 mbar 3.24 m/s 233.63 Deg 1.25 µg/m3
2022-09-13 14:00 1.46 µg/m3 -0.04 µg/m3 68.27 µg/m3 6.73 µg/m3 7.1 µg/m3 28.89 °C 60.6 % 1,007.03 mbar 3.72 m/s 214.52 Deg 1.04 µg/m3
2022-09-13 13:00 1.89 µg/m3 -0.02 µg/m3 69.63 µg/m3 8.45 µg/m3 7.88 µg/m3 28.2 °C 64.54 % 1,007.35 mbar 3.6 m/s 184.58 Deg 0.96 µg/m3
2022-09-13 12:00 1.45 µg/m3 0.02 µg/m3 73.82 µg/m3 11.67 µg/m3 8.93 µg/m3 27.74 °C 70.52 % 1,007.35 mbar 4.71 m/s 157.35 Deg 0.95 µg/m3
2022-09-13 11:00 5.99 µg/m3 -0.01 µg/m3 70.08 µg/m3 17.06 µg/m3 12.06 µg/m3 27.56 °C 73.57 % 1,007.55 mbar 4.22 m/s 165.55 Deg 2.03 µg/m3
2022-09-13 10:00 0 µg/m3 0 µg/m3 0 µg/m3 24.25 µg/m3 10.4 µg/m3 27.37 °C 72.33 % 1,007.51 mbar 3.73 m/s 173.07 Deg 0 µg/m3
2022-09-13 09:00 0 µg/m3 0 µg/m3 0 µg/m3 35.56 µg/m3 16.1 µg/m3 27.18 °C 73.7 % 1,007.12 mbar 2.8 m/s 152.28 Deg 0 µg/m3
2022-09-13 08:00 0 µg/m3 0 µg/m3 0 µg/m3 60.05 µg/m3 19.06 µg/m3 26.91 °C 76.37 % 1,006.86 mbar 0.95 m/s 227.59 Deg 0 µg/m3
2022-09-13 07:00 70.95 µg/m3 0.57 µg/m3 4.93 µg/m3 47.51 µg/m3 5.58 µg/m3 25.68 °C 81.56 % 1,006.70 mbar 0.42 m/s 204.55 Deg 38.5 µg/m3
2022-09-13 06:00 61.17 µg/m3 0.27 µg/m3 19.43 µg/m3 23.42 µg/m3 4.58 µg/m3 25.16 °C 83.47 % 1,006.30 mbar 0.45 m/s 262.1 Deg 22.49 µg/m3
2022-09-13 05:00 41.24 µg/m3 0.04 µg/m3 31.97 µg/m3 14.02 µg/m3 4.82 µg/m3 25.18 °C 83.25 % 1,006.08 mbar 0.5 m/s 234.38 Deg 2.85 µg/m3
2022-09-13 04:00 22.81 µg/m3 0.15 µg/m3 47.02 µg/m3 10.57 µg/m3 5.17 µg/m3 25.3 °C 82.05 % 1,006.16 mbar 0.36 m/s 266.94 Deg 1.1 µg/m3
2022-09-13 03:00 8.24 µg/m3 -0.02 µg/m3 66.74 µg/m3 12.77 µg/m3 5.91 µg/m3 25.5 °C 81.51 % 1,006.42 mbar 0.46 m/s 279.03 Deg 0.8 µg/m3
2022-09-13 02:00 10.4 µg/m3 0.01 µg/m3 65.85 µg/m3 15.78 µg/m3 5.41 µg/m3 25.59 °C 80.66 % 1,006.70 mbar 0.35 m/s 209.4 Deg 0.8 µg/m3
2022-09-13 01:00 2.11 µg/m3 -0.05 µg/m3 74.32 µg/m3 24.43 µg/m3 6.37 µg/m3 25.78 °C 78.66 % 1,006.95 mbar 0.36 m/s 200.15 Deg 0.73 µg/m3
2022-09-13 00:00 1.49 µg/m3 -0.01 µg/m3 75.94 µg/m3 32.81 µg/m3 9.07 µg/m3 25.83 °C 77.3 % 1,007.00 mbar 0.48 m/s 128.17 Deg 0.73 µg/m3
2022-09-12 23:00 2.91 µg/m3 0.03 µg/m3 72.3 µg/m3 20.25 µg/m3 11.18 µg/m3 25.87 °C 76.95 % 1,007.17 mbar 0.39 m/s 171.78 Deg 0.89 µg/m3
2022-09-12 22:00 4.15 µg/m3 -0.01 µg/m3 69.01 µg/m3 17.42 µg/m3 8 µg/m3 25.95 °C 77.06 % 1,007.07 mbar 0.62 m/s 131.96 Deg 0.81 µg/m3
2022-09-12 21:00 3.62 µg/m3 0.02 µg/m3 75.39 µg/m3 18.28 µg/m3 6.39 µg/m3 26.11 °C 76.51 % 1,007.00 mbar 0.88 m/s 161.5 Deg 0.76 µg/m3
2022-09-12 20:00 3.78 µg/m3 0.02 µg/m3 75.99 µg/m3 24.73 µg/m3 4.66 µg/m3 26.31 °C 76.01 % 1,006.55 mbar 1.25 m/s 116.52 Deg 0.78 µg/m3
2022-09-12 19:00 4.66 µg/m3 -0.01 µg/m3 79.64 µg/m3 19.67 µg/m3 5.31 µg/m3 26.68 °C 74.62 % 1,006.05 mbar 1.6 m/s 209.83 Deg 0.8 µg/m3
2022-09-12 18:00 6.62 µg/m3 -0.05 µg/m3 83.56 µg/m3 18.84 µg/m3 4.9 µg/m3 27.45 °C 71.17 % 1,005.94 mbar 1.98 m/s 287.73 Deg 1.07 µg/m3
2022-09-12 17:00 7.1 µg/m3 -0.02 µg/m3 82.54 µg/m3 25.17 µg/m3 3.36 µg/m3 27.91 °C 66.98 % 1,005.98 mbar 2.88 m/s 203.52 Deg 1.16 µg/m3
2022-09-12 16:00 8.08 µg/m3 0.02 µg/m3 78.62 µg/m3 18.23 µg/m3 3.24 µg/m3 28.44 °C 62.17 % 1,006.31 mbar 3.52 m/s 161.03 Deg 1.85 µg/m3
2022-09-12 15:00 3.68 µg/m3 0.01 µg/m3 84 µg/m3 13.24 µg/m3 3.61 µg/m3 28.64 °C 60.72 % 1,006.71 mbar 3.42 m/s 159.62 Deg 1.12 µg/m3
2022-09-12 14:00 4.16 µg/m3 0.02 µg/m3 83.18 µg/m3 15.76 µg/m3 4.33 µg/m3 28.63 °C 59.59 % 1,007.19 mbar 3.56 m/s 161.12 Deg 1.2 µg/m3
2022-09-12 13:00 4.79 µg/m3 0.05 µg/m3 81.36 µg/m3 12.82 µg/m3 5.77 µg/m3 28.81 °C 58.67 % 1,007.38 mbar 3.61 m/s 150.17 Deg 1.38 µg/m3
2022-09-12 12:00 3.61 µg/m3 0.02 µg/m3 75.78 µg/m3 10.22 µg/m3 6.62 µg/m3 29.17 °C 54.44 % 1,007.43 mbar 2.59 m/s 194.72 Deg 1.3 µg/m3
2022-09-12 11:00 5.45 µg/m3 0.04 µg/m3 68.66 µg/m3 13.21 µg/m3 7.06 µg/m3 28.9 °C 50.96 % 1,007.65 mbar 2.09 m/s 13.93 Deg 1.65 µg/m3
2022-09-12 10:00 6.9 µg/m3 0.03 µg/m3 62.57 µg/m3 17.6 µg/m3 8.06 µg/m3 28.27 °C 56.03 % 1,007.65 mbar 2.85 m/s 20.8 Deg 2.42 µg/m3
2022-09-12 09:00 8.97 µg/m3 0.04 µg/m3 56.99 µg/m3 24.68 µg/m3 11.43 µg/m3 27.81 °C 57.48 % 1,007.18 mbar 3.07 m/s 14.68 Deg 2.67 µg/m3
2022-09-12 08:00 29.45 µg/m3 0.23 µg/m3 37.71 µg/m3 39.1 µg/m3 16.28 µg/m3 27.4 °C 63.27 % 1,006.94 mbar 2.6 m/s 14.52 Deg 11.2 µg/m3
2022-09-12 07:00 62.23 µg/m3 0.43 µg/m3 5.36 µg/m3 26.26 µg/m3 19.02 µg/m3 25.56 °C 84.9 % 1,006.67 mbar 1.28 m/s 316.83 Deg 37.11 µg/m3
2022-09-12 06:00 57.8 µg/m3 0.22 µg/m3 5.29 µg/m3 24.83 µg/m3 7.31 µg/m3 25.09 °C 91.93 % 1,006.24 mbar 1.24 m/s 301 Deg 19.3 µg/m3
2022-09-12 05:00 27.17 µg/m3 0.06 µg/m3 25.56 µg/m3 29.42 µg/m3 7.75 µg/m3 25.29 °C 92.33 % 1,005.88 mbar 0.99 m/s 291.2 Deg 2.53 µg/m3
2022-09-12 04:00 8.3 µg/m3 0.14 µg/m3 53.15 µg/m3 30.97 µg/m3 8.25 µg/m3 25.65 °C 92.12 % 1,005.77 mbar 1.12 m/s 280.37 Deg 0.93 µg/m3
2022-09-12 03:00 5.07 µg/m3 0.04 µg/m3 60.97 µg/m3 24.21 µg/m3 5.79 µg/m3 26.15 °C 89.89 % 1,005.85 mbar 1.06 m/s 110.37 Deg 1.04 µg/m3
2022-09-12 02:00 3.14 µg/m3 0.01 µg/m3 63.29 µg/m3 28.43 µg/m3 5.2 µg/m3 26.58 °C 87.26 % 1,006.12 mbar 2.01 m/s 35.48 Deg 0.77 µg/m3
2022-09-12 01:00 9 µg/m3 0.01 µg/m3 48.1 µg/m3 46.33 µg/m3 5.66 µg/m3 27.22 °C 83.5 % 1,006.41 mbar 2.77 m/s 269.95 Deg 1.29 µg/m3
2022-09-12 00:00 10.29 µg/m3 0.04 µg/m3 50.24 µg/m3 29.38 µg/m3 6.53 µg/m3 27.27 °C 81.72 % 1,006.70 mbar 2.89 m/s 344.23 Deg 0.89 µg/m3
2022-09-11 23:00 13.34 µg/m3 0.01 µg/m3 47.43 µg/m3 14.39 µg/m3 6 µg/m3 27.5 °C 68.53 % 1,006.52 mbar 2.55 m/s 328.2 Deg 1.1 µg/m3
2022-09-11 22:00 12.28 µg/m3 0.01 µg/m3 46.72 µg/m3 16.09 µg/m3 4.52 µg/m3 28.08 °C 56.91 % 1,006.46 mbar 2.99 m/s 332.83 Deg 1.58 µg/m3
2022-09-11 21:00 14.71 µg/m3 0.05 µg/m3 44.69 µg/m3 24.07 µg/m3 4.97 µg/m3 28.1 °C 60.81 % 1,006.43 mbar 2.71 m/s 323.58 Deg 2.04 µg/m3
2022-09-11 20:00 14.45 µg/m3 0.03 µg/m3 50.38 µg/m3 34.62 µg/m3 4.88 µg/m3 27.71 °C 71.53 % 1,006.11 mbar 2.33 m/s 321.13 Deg 2.29 µg/m3
2022-09-11 19:00 14.28 µg/m3 0.03 µg/m3 54.91 µg/m3 21.04 µg/m3 4.59 µg/m3 28.14 °C 69.66 % 1,005.74 mbar 3.06 m/s 305.92 Deg 2.32 µg/m3
2022-09-11 18:00 8.96 µg/m3 0 µg/m3 63.49 µg/m3 10.92 µg/m3 5.04 µg/m3 29.36 °C 61 % 1,005.78 mbar 3.32 m/s 313.82 Deg 1.82 µg/m3
2022-09-11 17:00 6.13 µg/m3 0 µg/m3 66.81 µg/m3 11.04 µg/m3 5.18 µg/m3 30.28 °C 54.73 % 1,006.04 mbar 3.42 m/s 315.04 Deg 1.67 µg/m3
2022-09-11 16:00 4.43 µg/m3 0.02 µg/m3 79.99 µg/m3 13.97 µg/m3 4.93 µg/m3 30.74 °C 54.69 % 1,006.43 mbar 3.77 m/s 320.07 Deg 1.23 µg/m3
2022-09-11 15:00 4.3 µg/m3 -0.01 µg/m3 73.77 µg/m3 18.36 µg/m3 4.27 µg/m3 31.25 °C 51.27 % 1,006.93 mbar 3.7 m/s 310.97 Deg 1.27 µg/m3
2022-09-11 14:00 4.88 µg/m3 0 µg/m3 72.08 µg/m3 29.27 µg/m3 4.81 µg/m3 31.19 °C 55.78 % 1,007.52 mbar 3.51 m/s 331.48 Deg 1.51 µg/m3
2022-09-11 13:00 5.16 µg/m3 0.03 µg/m3 67.39 µg/m3 20.73 µg/m3 4.88 µg/m3 30.3 °C 64.16 % 1,007.89 mbar 4.12 m/s 266.03 Deg 1.83 µg/m3
2022-09-11 12:00 6.71 µg/m3 0.01 µg/m3 63.86 µg/m3 19.95 µg/m3 4.69 µg/m3 30.18 °C 65.07 % 1,008.19 mbar 3.9 m/s 347.1 Deg 2.03 µg/m3
2022-09-11 11:00 7.28 µg/m3 0.03 µg/m3 63.86 µg/m3 23.05 µg/m3 4.68 µg/m3 29.75 °C 67.3 % 1,008.49 mbar 4.06 m/s 261.43 Deg 2.28 µg/m3
2022-09-11 10:00 7.61 µg/m3 0.03 µg/m3 61.3 µg/m3 19.3 µg/m3 5.41 µg/m3 29.69 °C 64.6 % 1,008.42 mbar 3.64 m/s 348.17 Deg 2.36 µg/m3
2022-09-11 09:00 10.19 µg/m3 0.06 µg/m3 55.89 µg/m3 24.74 µg/m3 6.48 µg/m3 29.28 °C 62.79 % 1,008.07 mbar 2.77 m/s 325.27 Deg 2.72 µg/m3
2022-09-11 08:00 19.66 µg/m3 0.09 µg/m3 43.74 µg/m3 16.63 µg/m3 5.61 µg/m3 27.98 °C 71.64 % 1,007.76 mbar 2.16 m/s 328.25 Deg 4.46 µg/m3
2022-09-11 07:00 28.27 µg/m3 0.09 µg/m3 28.03 µg/m3 13.67 µg/m3 5.19 µg/m3 26.4 °C 77.54 % 1,007.59 mbar 1.58 m/s 312.85 Deg 5.17 µg/m3
2022-09-11 06:00 30.44 µg/m3 0.09 µg/m3 23.03 µg/m3 10.36 µg/m3 5.35 µg/m3 26.21 °C 80.69 % 1,007.18 mbar 1.57 m/s 327.67 Deg 2.94 µg/m3
2022-09-11 05:00 17.39 µg/m3 0.04 µg/m3 33.83 µg/m3 9.47 µg/m3 6.83 µg/m3 26.92 °C 78.1 % 1,006.90 mbar 1.87 m/s 328.93 Deg 1.32 µg/m3
2022-09-11 04:00 16.72 µg/m3 0.16 µg/m3 39.7 µg/m3 10.27 µg/m3 7.35 µg/m3 27.08 °C 83.56 % 1,007.07 mbar 2.53 m/s 336.25 Deg 1.06 µg/m3
2022-09-11 03:00 8.04 µg/m3 0.04 µg/m3 50.21 µg/m3 10.52 µg/m3 9.13 µg/m3 27.31 °C 79.44 % 1,007.56 mbar 2.59 m/s 335.9 Deg 0.88 µg/m3
2022-09-11 02:00 5.42 µg/m3 0.05 µg/m3 50.67 µg/m3 14.89 µg/m3 11.89 µg/m3 26.95 °C 83.56 % 1,008.06 mbar 2.01 m/s 326.03 Deg 0.87 µg/m3
2022-09-11 01:00 8.36 µg/m3 0.03 µg/m3 48.12 µg/m3 18.73 µg/m3 18.75 µg/m3 26.51 °C 90.22 % 1,008.68 mbar 1.52 m/s 294.12 Deg 0.96 µg/m3
2022-09-11 00:00 10.77 µg/m3 0.03 µg/m3 49.74 µg/m3 27.27 µg/m3 14.8 µg/m3 26.8 °C 88.49 % 1,008.94 mbar 1.51 m/s 273.3 Deg 0.97 µg/m3
2022-09-10 23:00 12.28 µg/m3 0.05 µg/m3 56.22 µg/m3 46.44 µg/m3 15.51 µg/m3 27.2 °C 91.16 % 1,009.07 mbar 1.69 m/s 299.85 Deg 1.13 µg/m3
2022-09-10 22:00 10.25 µg/m3 0.06 µg/m3 57.08 µg/m3 71.56 µg/m3 24.46 µg/m3 27.72 °C 91.57 % 1,008.72 mbar 1.46 m/s 313.98 Deg 1.55 µg/m3
2022-09-10 21:00 8.66 µg/m3 0.06 µg/m3 56.5 µg/m3 80.65 µg/m3 21.87 µg/m3 28.08 °C 91.23 % 1,008.56 mbar 1.84 m/s 330.12 Deg 1.37 µg/m3
2022-09-10 20:00 15.47 µg/m3 0.05 µg/m3 42.98 µg/m3 55.11 µg/m3 15.01 µg/m3 28.63 °C 86.41 % 1,008.10 mbar 1.32 m/s 309.7 Deg 1.99 µg/m3
2022-09-10 19:00 16.06 µg/m3 0.02 µg/m3 45.05 µg/m3 37.16 µg/m3 13.15 µg/m3 29.49 °C 80.49 % 1,007.76 mbar 1.68 m/s 315.67 Deg 2.41 µg/m3
2022-09-10 18:00 11.92 µg/m3 0.04 µg/m3 53.21 µg/m3 30.21 µg/m3 9.19 µg/m3 30.52 °C 74.8 % 1,007.71 mbar 1.63 m/s 307.03 Deg 2.07 µg/m3
2022-09-10 17:00 7.26 µg/m3 -0.01 µg/m3 63.35 µg/m3 14.5 µg/m3 8.86 µg/m3 31.1 °C 72.58 % 1,007.83 mbar 1.98 m/s 279.98 Deg 1.67 µg/m3
2022-09-10 16:00 4.44 µg/m3 -0.01 µg/m3 68.12 µg/m3 13.48 µg/m3 12.3 µg/m3 31.47 °C 72.94 % 1,007.99 mbar 2.06 m/s 243.7 Deg 1.33 µg/m3
2022-09-10 15:00 2.43 µg/m3 -0.01 µg/m3 69.52 µg/m3 19.93 µg/m3 10 µg/m3 31.13 °C 76.62 % 1,008.31 mbar 2.82 m/s 245.12 Deg 1.2 µg/m3
2022-09-10 14:00 1.95 µg/m3 0.01 µg/m3 69.53 µg/m3 23.99 µg/m3 7.11 µg/m3 30.57 °C 81.11 % 1,008.86 mbar 3.48 m/s 219.52 Deg 1.1 µg/m3
2022-09-10 13:00 1.61 µg/m3 0.02 µg/m3 69.97 µg/m3 35.7 µg/m3 8.76 µg/m3 30.66 °C 80.92 % 1,009.24 mbar 3.74 m/s 202.52 Deg 0.95 µg/m3
2022-09-10 12:00 2.18 µg/m3 0.01 µg/m3 72.11 µg/m3 57.1 µg/m3 9.61 µg/m3 30.52 °C 81.47 % 1,009.71 mbar 3.35 m/s 202.02 Deg 1.01 µg/m3
2022-09-10 11:00 6.13 µg/m3 0.07 µg/m3 75.11 µg/m3 44.76 µg/m3 11.2 µg/m3 30.64 °C 82.16 % 1,010.24 mbar 2.53 m/s 237.36 Deg 1.43 µg/m3
2022-09-10 10:00 8.37 µg/m3 0.02 µg/m3 71.55 µg/m3 31.79 µg/m3 9.78 µg/m3 30.32 °C 80.65 % 1,010.39 mbar 1.81 m/s 247.4 Deg 1.83 µg/m3
2022-09-10 09:00 12.64 µg/m3 0.07 µg/m3 63.98 µg/m3 47.78 µg/m3 15.49 µg/m3 29.49 °C 81.36 % 1,010.03 mbar 1.34 m/s 218.92 Deg 2.91 µg/m3
2022-09-10 08:00 13.7 µg/m3 0.08 µg/m3 59.2 µg/m3 62.33 µg/m3 19.42 µg/m3 27.79 °C 95.36 % 1,009.62 mbar 1.79 m/s 266.05 Deg 2.54 µg/m3
2022-09-10 07:00 32.76 µg/m3 0.03 µg/m3 32.49 µg/m3 48.3 µg/m3 16.59 µg/m3 26.76 °C 99.9 % 1,009.40 mbar 1.2 m/s 253.67 Deg 4.46 µg/m3
2022-09-10 06:00 20 µg/m3 0.05 µg/m3 45.31 µg/m3 40.36 µg/m3 15.65 µg/m3 26.5 °C 99.9 % 1,008.92 mbar 1.25 m/s 266.28 Deg 1.42 µg/m3
2022-09-10 05:00 6.87 µg/m3 0.03 µg/m3 54.28 µg/m3 35.42 µg/m3 8.22 µg/m3 26.42 °C 99.9 % 1,008.61 mbar 1.51 m/s 242.83 Deg 0.94 µg/m3
2022-09-10 04:00 2.9 µg/m3 0.19 µg/m3 57.3 µg/m3 37.95 µg/m3 11.69 µg/m3 26.65 °C 99.9 % 1,008.67 mbar 1.01 m/s 234.55 Deg 0.78 µg/m3
2022-09-10 03:00 3.13 µg/m3 -0.01 µg/m3 54.62 µg/m3 37.1 µg/m3 12.75 µg/m3 26.84 °C 99.9 % 1,008.94 mbar 0.68 m/s 228.6 Deg 0.75 µg/m3
2022-09-10 02:00 2.5 µg/m3 -0.03 µg/m3 60.43 µg/m3 44.12 µg/m3 18.91 µg/m3 27.08 °C 99.9 % 1,009.40 mbar 1.5 m/s 264.07 Deg 0.75 µg/m3
2022-09-10 01:00 3.39 µg/m3 0 µg/m3 57.39 µg/m3 52.12 µg/m3 14.48 µg/m3 26.97 °C 99.9 % 1,009.73 mbar 1.53 m/s 252.82 Deg 0.8 µg/m3
2022-09-10 00:00 5.19 µg/m3 0 µg/m3 54.89 µg/m3 40.52 µg/m3 11.69 µg/m3 27.13 °C 99.64 % 1,009.72 mbar 1.77 m/s 236 Deg 0.84 µg/m3
2022-09-09 23:00 6.05 µg/m3 -0.03 µg/m3 58.2 µg/m3 58.19 µg/m3 8.41 µg/m3 27.31 °C 97.55 % 1,009.73 mbar 2.07 m/s 230.03 Deg 0.84 µg/m3
2022-09-09 22:00 2.72 µg/m3 0.01 µg/m3 66.66 µg/m3 30.11 µg/m3 10.27 µg/m3 27.46 °C 94.43 % 1,009.62 mbar 2.95 m/s 225.03 Deg 0.75 µg/m3
2022-09-09 21:00 2.14 µg/m3 0.01 µg/m3 69.87 µg/m3 23.25 µg/m3 14.36 µg/m3 27.64 °C 91.84 % 1,009.70 mbar 2.83 m/s 218.5 Deg 0.76 µg/m3
2022-09-09 20:00 1.81 µg/m3 0.01 µg/m3 64.6 µg/m3 20.03 µg/m3 7.5 µg/m3 27.8 °C 91.38 % 1,009.00 mbar 3.78 m/s 207.83 Deg 0.75 µg/m3
2022-09-09 19:00 1.93 µg/m3 0.02 µg/m3 63.31 µg/m3 19.66 µg/m3 9.72 µg/m3 28 °C 90.12 % 1,008.70 mbar 3.54 m/s 204.6 Deg 0.82 µg/m3
2022-09-09 18:00 0.94 µg/m3 0.06 µg/m3 64.33 µg/m3 30.08 µg/m3 9.07 µg/m3 28.34 °C 87.93 % 1,008.73 mbar 4.08 m/s 194.67 Deg 0.77 µg/m3
2022-09-09 17:00 1.59 µg/m3 0.07 µg/m3 60.88 µg/m3 31.54 µg/m3 12.48 µg/m3 29.01 °C 85.23 % 1,009.01 mbar 4.1 m/s 204.15 Deg 1.05 µg/m3
2022-09-09 16:00 0.69 µg/m3 0.06 µg/m3 60.99 µg/m3 34.67 µg/m3 7.06 µg/m3 29.42 °C 82.72 % 1,009.08 mbar 4.74 m/s 202.45 Deg 0.91 µg/m3
2022-09-09 15:00 0.85 µg/m3 0.03 µg/m3 66.55 µg/m3 37.78 µg/m3 8.98 µg/m3 29.47 °C 82.57 % 1,009.32 mbar 5.24 m/s 201.67 Deg 0.97 µg/m3
2022-09-09 14:00 1.59 µg/m3 0.01 µg/m3 76.62 µg/m3 30.46 µg/m3 10.24 µg/m3 29.84 °C 82.3 % 1,009.70 mbar 4.64 m/s 213.53 Deg 1.01 µg/m3
2022-09-09 13:00 1.37 µg/m3 0.02 µg/m3 66.94 µg/m3 27.07 µg/m3 6.71 µg/m3 29.86 °C 80.86 % 1,010.14 mbar 4.66 m/s 208.18 Deg 1.11 µg/m3
2022-09-09 12:00 1.74 µg/m3 0.04 µg/m3 67.81 µg/m3 24.42 µg/m3 8.38 µg/m3 29.83 °C 79.42 % 1,010.32 mbar 3.92 m/s 220.15 Deg 1.17 µg/m3
2022-09-09 11:00 2.24 µg/m3 0 µg/m3 69.9 µg/m3 35.2 µg/m3 9.06 µg/m3 29.55 °C 82.6 % 1,010.45 mbar 4.09 m/s 219.42 Deg 1.29 µg/m3
2022-09-09 10:00 2.51 µg/m3 0.01 µg/m3 70.53 µg/m3 27.6 µg/m3 11.02 µg/m3 29.12 °C 84.4 % 1,010.15 mbar 3.88 m/s 230.3 Deg 1.34 µg/m3
2022-09-09 09:00 1.71 µg/m3 0.02 µg/m3 73.12 µg/m3 22.57 µg/m3 9.89 µg/m3 28.59 °C 84.42 % 1,009.57 mbar 4.92 m/s 209.75 Deg 1.02 µg/m3
2022-09-09 08:00 3.11 µg/m3 0.03 µg/m3 70.32 µg/m3 23.43 µg/m3 11.79 µg/m3 28.06 °C 86.91 % 1,009.51 mbar 4.17 m/s 208.52 Deg 1.11 µg/m3
2022-09-09 07:00 4.39 µg/m3 0.01 µg/m3 64.31 µg/m3 25.37 µg/m3 8.37 µg/m3 27.28 °C 90.81 % 1,009.48 mbar 2.97 m/s 211.1 Deg 0.97 µg/m3
2022-09-09 06:00 4.46 µg/m3 0.03 µg/m3 62.06 µg/m3 13.67 µg/m3 6.17 µg/m3 26.9 °C 91.29 % 1,009.15 mbar 2.56 m/s 206.33 Deg 0.81 µg/m3
2022-09-09 05:00 2.73 µg/m3 0.08 µg/m3 62.45 µg/m3 9.93 µg/m3 5.61 µg/m3 26.89 °C 89.3 % 1,009.10 mbar 2.65 m/s 205.13 Deg 0.77 µg/m3
2022-09-09 04:00 1.5 µg/m3 0.16 µg/m3 67.1 µg/m3 11.03 µg/m3 6.46 µg/m3 26.85 °C 90.8 % 1,009.06 mbar 2.7 m/s 199.75 Deg 0.71 µg/m3
2022-09-09 03:00 1.75 µg/m3 0.04 µg/m3 68.21 µg/m3 17.82 µg/m3 6.56 µg/m3 26.81 °C 91.79 % 1,009.28 mbar 2.91 m/s 205.85 Deg 0.73 µg/m3
2022-09-09 02:00 1.39 µg/m3 -0.02 µg/m3 69.24 µg/m3 14.36 µg/m3 8.54 µg/m3 26.87 °C 91.28 % 1,009.45 mbar 3.05 m/s 198.6 Deg 0.73 µg/m3
2022-09-09 01:00 2.67 µg/m3 -0.02 µg/m3 65.66 µg/m3 11.27 µg/m3 8.5 µg/m3 26.9 °C 90.67 % 1,009.82 mbar 2.71 m/s 194.75 Deg 0.74 µg/m3
2022-09-09 00:00 2.65 µg/m3 0 µg/m3 63.22 µg/m3 14.69 µg/m3 10.77 µg/m3 26.9 °C 90.62 % 1,010.18 mbar 2.25 m/s 201.4 Deg 0.76 µg/m3
2022-09-08 23:00 9.01 µg/m3 -0.02 µg/m3 60.89 µg/m3 19.74 µg/m3 8.25 µg/m3 27.07 °C 90.41 % 1,010.24 mbar 2.31 m/s 188.6 Deg 0.82 µg/m3
2022-09-08 22:00 3.58 µg/m3 -0.01 µg/m3 67.57 µg/m3 25.42 µg/m3 9 µg/m3 27.07 °C 91.89 % 1,010.37 mbar 2.1 m/s 191.77 Deg 0.73 µg/m3
2022-09-08 21:00 3.61 µg/m3 -0.01 µg/m3 70.11 µg/m3 35.82 µg/m3 10.44 µg/m3 27.27 °C 93.07 % 1,010.06 mbar 2.95 m/s 198.37 Deg 0.74 µg/m3
2022-09-08 20:00 4.32 µg/m3 0.01 µg/m3 73.21 µg/m3 33.65 µg/m3 7.67 µg/m3 27.45 °C 92.19 % 1,009.41 mbar 3.15 m/s 195.38 Deg 0.73 µg/m3
2022-09-08 19:00 2.56 µg/m3 -0.04 µg/m3 66.21 µg/m3 25.48 µg/m3 10.26 µg/m3 27.69 °C 89.17 % 1,008.90 mbar 3.04 m/s 209.23 Deg 0.81 µg/m3
2022-09-08 18:00 1.43 µg/m3 -0.02 µg/m3 66.65 µg/m3 22.21 µg/m3 10.23 µg/m3 28.26 °C 85.16 % 1,008.85 mbar 2.95 m/s 217.97 Deg 0.9 µg/m3
2022-09-08 17:00 1.21 µg/m3 0 µg/m3 67.4 µg/m3 24.22 µg/m3 7.46 µg/m3 28.83 °C 81.46 % 1,008.97 mbar 3.2 m/s 217.68 Deg 0.86 µg/m3
2022-09-08 16:00 1.55 µg/m3 0.01 µg/m3 72.87 µg/m3 23.73 µg/m3 4.74 µg/m3 29.22 °C 78.37 % 1,009.30 mbar 3.44 m/s 224.7 Deg 0.96 µg/m3
2022-09-08 15:00 0.82 µg/m3 0.02 µg/m3 70.97 µg/m3 25.11 µg/m3 4.75 µg/m3 29.43 °C 77.51 % 1,009.43 mbar 4.18 m/s 208.3 Deg 0.86 µg/m3
2022-09-08 14:00 1.46 µg/m3 0.03 µg/m3 70.33 µg/m3 20.62 µg/m3 4.57 µg/m3 29.52 °C 76.09 % 1,009.75 mbar 3.85 m/s 207.63 Deg 0.98 µg/m3
2022-09-08 13:00 1.57 µg/m3 0.01 µg/m3 71.82 µg/m3 25.84 µg/m3 5.23 µg/m3 29.45 °C 75.95 % 1,009.79 mbar 3.45 m/s 225.77 Deg 1.02 µg/m3
2022-09-08 12:00 0.94 µg/m3 0.03 µg/m3 72.87 µg/m3 22.11 µg/m3 7.58 µg/m3 29.28 °C 76.66 % 1,009.85 mbar 4.09 m/s 206.68 Deg 0.88 µg/m3
2022-09-08 11:00 2.61 µg/m3 0.03 µg/m3 76.4 µg/m3 32.25 µg/m3 6.51 µg/m3 29.12 °C 74.96 % 1,010.40 mbar 3.47 m/s 219.57 Deg 1.15 µg/m3
2022-09-08 10:00 2.81 µg/m3 0 µg/m3 71.85 µg/m3 21.83 µg/m3 7.38 µg/m3 28.72 °C 78.02 % 1,010.28 mbar 3.68 m/s 207.57 Deg 1.27 µg/m3
2022-09-08 09:00 1.95 µg/m3 0.02 µg/m3 72.84 µg/m3 17.6 µg/m3 8.37 µg/m3 28.31 °C 79.63 % 1,009.77 mbar 3.1 m/s 209.98 Deg 1.1 µg/m3
2022-09-08 08:00 2.63 µg/m3 0.03 µg/m3 71.71 µg/m3 10.19 µg/m3 6.77 µg/m3 27.86 °C 81.1 % 1,009.48 mbar 2.7 m/s 214.27 Deg 1.03 µg/m3
2022-09-08 07:00 8.67 µg/m3 -0.01 µg/m3 62.96 µg/m3 6.93 µg/m3 6.15 µg/m3 26.94 °C 85.16 % 1,008.95 mbar 3.23 m/s 205.18 Deg 1.01 µg/m3
2022-09-08 06:00 9.15 µg/m3 -0.03 µg/m3 57.92 µg/m3 7.92 µg/m3 7.6 µg/m3 26.07 °C 88.56 % 1,008.67 mbar 1.95 m/s 209.6 Deg 1.02 µg/m3
2022-09-08 05:00 3.52 µg/m3 -0.01 µg/m3 59.95 µg/m3 7.2 µg/m3 9.46 µg/m3 25.97 °C 89.16 % 1,008.77 mbar 1.65 m/s 219.03 Deg 0.8 µg/m3
2022-09-08 04:00 2.75 µg/m3 0.15 µg/m3 60.46 µg/m3 8.74 µg/m3 7.78 µg/m3 25.93 °C 90.11 % 1,008.83 mbar 1.78 m/s 222.85 Deg 0.74 µg/m3
2022-09-08 03:00 1.49 µg/m3 -0.02 µg/m3 62.93 µg/m3 11.85 µg/m3 9.05 µg/m3 26.13 °C 90.14 % 1,008.98 mbar 2.01 m/s 207.62 Deg 0.71 µg/m3
2022-09-08 02:00 1.85 µg/m3 -0.01 µg/m3 61.13 µg/m3 13.48 µg/m3 7.18 µg/m3 26.25 °C 90.62 % 1,009.35 mbar 2.35 m/s 202.72 Deg 0.73 µg/m3
2022-09-08 01:00 2.96 µg/m3 0.02 µg/m3 56.93 µg/m3 15.43 µg/m3 8.89 µg/m3 26.17 °C 90.61 % 1,009.87 mbar 1.95 m/s 208.47 Deg 0.74 µg/m3
2022-09-08 00:00 5.72 µg/m3 -0.02 µg/m3 55.28 µg/m3 19.46 µg/m3 11.4 µg/m3 26.33 °C 89.24 % 1,010.36 mbar 1.21 m/s 228.05 Deg 0.79 µg/m3
2022-09-07 23:00 7.22 µg/m3 -0 µg/m3 54.47 µg/m3 14.68 µg/m3 9.61 µg/m3 26.54 °C 88.25 % 1,010.56 mbar 1.14 m/s 228.87 Deg 0.92 µg/m3
2022-09-07 22:00 2 µg/m3 -0.03 µg/m3 61.59 µg/m3 19 µg/m3 7.04 µg/m3 26.84 °C 87.87 % 1,010.70 mbar 1.69 m/s 212.03 Deg 0.73 µg/m3
2022-09-07 21:00 3.44 µg/m3 0 µg/m3 61.69 µg/m3 25.82 µg/m3 5.17 µg/m3 27.05 °C 86.8 % 1,010.68 mbar 2.04 m/s 205.37 Deg 0.74 µg/m3
2022-09-07 20:00 3.48 µg/m3 0.01 µg/m3 62.05 µg/m3 34.08 µg/m3 4.92 µg/m3 27.2 °C 85.67 % 1,010.15 mbar 1.99 m/s 197.33 Deg 0.75 µg/m3
2022-09-07 19:00 3.9 µg/m3 0.02 µg/m3 64.66 µg/m3 30.08 µg/m3 5.98 µg/m3 27.42 °C 84.45 % 1,009.69 mbar 2 m/s 211.2 Deg 0.86 µg/m3
2022-09-07 18:00 3.08 µg/m3 -0.01 µg/m3 67.95 µg/m3 22.62 µg/m3 6.62 µg/m3 28.1 °C 80.59 % 1,009.65 mbar 2.49 m/s 222.05 Deg 0.91 µg/m3
2022-09-07 17:00 3.77 µg/m3 0.01 µg/m3 69.25 µg/m3 16.24 µg/m3 9.06 µg/m3 28.73 °C 76.09 % 1,009.82 mbar 2.54 m/s 232.28 Deg 1.11 µg/m3
2022-09-07 16:00 3.07 µg/m3 0.06 µg/m3 70.02 µg/m3 9.31 µg/m3 5.75 µg/m3 28.88 °C 74.43 % 1,009.94 mbar 3.06 m/s 222.75 Deg 1.15 µg/m3
2022-09-07 15:00 2.99 µg/m3 0.03 µg/m3 73.04 µg/m3 7.58 µg/m3 6.95 µg/m3 29.1 °C 73.38 % 1,010.37 mbar 3.07 m/s 227.03 Deg 1.15 µg/m3
2022-09-07 14:00 1.7 µg/m3 0.01 µg/m3 77.31 µg/m3 10.48 µg/m3 7.31 µg/m3 29.11 °C 74.08 % 1,010.64 mbar 4.12 m/s 217.67 Deg 0.97 µg/m3
2022-09-07 13:00 3.41 µg/m3 -0.01 µg/m3 73.5 µg/m3 12.69 µg/m3 8.74 µg/m3 29.05 °C 74.11 % 1,011.03 mbar 4.1 m/s 229.02 Deg 1.32 µg/m3
2022-09-07 12:00 2.42 µg/m3 -0.03 µg/m3 71.97 µg/m3 16.8 µg/m3 6.4 µg/m3 28.81 °C 75.91 % 1,011.33 mbar 4.05 m/s 224.43 Deg 1.11 µg/m3
2022-09-07 11:00 4.6 µg/m3 -0.03 µg/m3 440.4 µg/m3 23.69 µg/m3 7.32 µg/m3 28.45 °C 79.54 % 1,011.25 mbar 4.18 m/s 196.35 Deg 1.58 µg/m3
2022-09-07 10:00 5.37 µg/m3 0 µg/m3 0 µg/m3 22.65 µg/m3 6.28 µg/m3 28 °C 82.67 % 1,010.99 mbar 3.76 m/s 181.52 Deg 1.53 µg/m3
2022-09-07 09:00 6.51 µg/m3 0.06 µg/m3 0 µg/m3 24.96 µg/m3 8.47 µg/m3 27.51 °C 85.03 % 1,010.70 mbar 3.19 m/s 176.4 Deg 1.58 µg/m3
2022-09-07 08:00 3.78 µg/m3 -0.01 µg/m3 0 µg/m3 19.64 µg/m3 10.21 µg/m3 26.88 °C 87.69 % 1,010.42 mbar 2.54 m/s 167.03 Deg 1.22 µg/m3
2022-09-07 07:00 6.62 µg/m3 0.01 µg/m3 0 µg/m3 25.85 µg/m3 8.3 µg/m3 26.02 °C 90.95 % 1,010.03 mbar 1.68 m/s 145.03 Deg 1.28 µg/m3
2022-09-07 06:00 5.35 µg/m3 -0 µg/m3 0 µg/m3 20.4 µg/m3 10.12 µg/m3 25.44 °C 93.01 % 1,009.73 mbar 1.31 m/s 219.65 Deg 0.81 µg/m3
2022-09-07 05:00 4.39 µg/m3 0.02 µg/m3 0 µg/m3 12.48 µg/m3 5.59 µg/m3 25.35 °C 91.65 % 1,009.89 mbar 0.88 m/s 208.42 Deg 0.74 µg/m3
2022-09-07 04:00 6.22 µg/m3 0.17 µg/m3 0 µg/m3 9.56 µg/m3 7.65 µg/m3 26 °C 88.3 % 1,010.28 mbar 0.58 m/s 279.89 Deg 0.74 µg/m3
2022-09-07 03:00 4.84 µg/m3 -0.04 µg/m3 0 µg/m3 11.18 µg/m3 6.34 µg/m3 26.18 °C 87.24 % 1,011.26 mbar 1.25 m/s 275.58 Deg 0.91 µg/m3
2022-09-07 02:00 2.29 µg/m3 -0.01 µg/m3 0 µg/m3 16.92 µg/m3 8.12 µg/m3 26.23 °C 86.54 % 1,011.95 mbar 1.8 m/s 272.15 Deg 0.71 µg/m3
2022-09-07 01:00 3.06 µg/m3 0.01 µg/m3 0 µg/m3 24.58 µg/m3 10.76 µg/m3 25.91 °C 88.27 % 1,011.92 mbar 1.23 m/s 238.18 Deg 0.71 µg/m3
2022-09-07 00:00 4.71 µg/m3 -0.01 µg/m3 0 µg/m3 24.17 µg/m3 6.63 µg/m3 26.04 °C 87.64 % 1,012.30 mbar 0.89 m/s 233.2 Deg 0.73 µg/m3
2022-09-06 23:00 5.29 µg/m3 -0.01 µg/m3 0 µg/m3 19.98 µg/m3 8.39 µg/m3 26.14 °C 86.11 % 1,012.05 mbar 1.28 m/s 221.57 Deg 0.73 µg/m3
2022-09-06 22:00 9.26 µg/m3 -0.02 µg/m3 0 µg/m3 14.29 µg/m3 6.64 µg/m3 26.27 °C 85.06 % 1,011.81 mbar 2.04 m/s 187.73 Deg 0.76 µg/m3
2022-09-06 21:00 4.43 µg/m3 -0.04 µg/m3 0 µg/m3 11.73 µg/m3 4.38 µg/m3 26.39 °C 83.94 % 1,011.78 mbar 1.88 m/s 170.1 Deg 0.72 µg/m3
2022-09-06 20:00 10.63 µg/m3 -0.03 µg/m3 0 µg/m3 11.45 µg/m3 5.87 µg/m3 26.5 °C 82.64 % 1,011.33 mbar 2.13 m/s 178.78 Deg 0.82 µg/m3
2022-09-06 19:00 8.95 µg/m3 -0 µg/m3 0 µg/m3 14.89 µg/m3 4.88 µg/m3 26.82 °C 78.86 % 1,011.21 mbar 2.54 m/s 183.13 Deg 0.85 µg/m3
2022-09-06 18:00 9.16 µg/m3 0.01 µg/m3 0 µg/m3 19.08 µg/m3 5.52 µg/m3 27.29 °C 75.6 % 1,011.29 mbar 2.92 m/s 182.42 Deg 1.05 µg/m3
2022-09-06 17:00 2.36 µg/m3 -0.02 µg/m3 0 µg/m3 28.02 µg/m3 6.43 µg/m3 27.41 °C 75.61 % 1,011.41 mbar 3.72 m/s 160 Deg 0.89 µg/m3
2022-09-06 16:00 0.48 µg/m3 -0.03 µg/m3 0 µg/m3 13.04 µg/m3 6.79 µg/m3 27.64 °C 74.18 % 1,011.48 mbar 3.39 m/s 160.68 Deg 0.72 µg/m3
2022-09-06 15:00 4.37 µg/m3 0.02 µg/m3 0 µg/m3 7.71 µg/m3 6.44 µg/m3 27.82 °C 73.72 % 1,011.45 mbar 4.35 m/s 165.78 Deg 1.42 µg/m3
2022-09-06 14:00 2.41 µg/m3 0.02 µg/m3 0 µg/m3 9.71 µg/m3 6.26 µg/m3 27.95 °C 72.18 % 1,012.11 mbar 4.13 m/s 169.87 Deg 0.94 µg/m3
2022-09-06 13:00 2.48 µg/m3 -0.02 µg/m3 0 µg/m3 9.48 µg/m3 5.65 µg/m3 28.17 °C 67.88 % 1,012.68 mbar 3.92 m/s 152.93 Deg 0.89 µg/m3
2022-09-06 12:00 1.15 µg/m3 -0.03 µg/m3 0 µg/m3 8.51 µg/m3 6.1 µg/m3 28.4 °C 66.2 % 1,013.00 mbar 3.8 m/s 126.38 Deg 0.78 µg/m3
2022-09-06 11:00 3.57 µg/m3 -0.02 µg/m3 0 µg/m3 10.24 µg/m3 8.53 µg/m3 28.92 °C 62.05 % 1,013.73 mbar 3 m/s 177.77 Deg 1.13 µg/m3
2022-09-06 10:00 6.53 µg/m3 0.04 µg/m3 0 µg/m3 15.85 µg/m3 10.31 µg/m3 28.49 °C 69.68 % 1,014.12 mbar 2.11 m/s 216.87 Deg 3.31 µg/m3
2022-09-06 09:00 7.78 µg/m3 0.03 µg/m3 0 µg/m3 18.82 µg/m3 8.59 µg/m3 27.75 °C 74.59 % 1,013.77 mbar 1.53 m/s 127.15 Deg 2.71 µg/m3
2022-09-06 08:00 2.77 µg/m3 0 µg/m3 77.88 µg/m3 17.7 µg/m3 4.98 µg/m3 26.87 °C 81.52 % 1,013.01 mbar 2.32 m/s 204.1 Deg 0.95 µg/m3
2022-09-06 07:00 5.5 µg/m3 0.02 µg/m3 70.26 µg/m3 20.33 µg/m3 4.72 µg/m3 26 °C 85.2 % 1,012.11 mbar 3.19 m/s 141.53 Deg 0.93 µg/m3
2022-09-06 06:00 5.69 µg/m3 0.03 µg/m3 63.31 µg/m3 15.4 µg/m3 4.5 µg/m3 25.28 °C 88.84 % 1,012.02 mbar 2.05 m/s 121.4 Deg 0.78 µg/m3
2022-09-06 05:00 5.19 µg/m3 0.03 µg/m3 63.72 µg/m3 14.97 µg/m3 5.21 µg/m3 25.44 °C 88.8 % 1,012.20 mbar 1.19 m/s 203.25 Deg 0.73 µg/m3
2022-09-06 04:00 2.77 µg/m3 0.12 µg/m3 67.12 µg/m3 21.1 µg/m3 5.1 µg/m3 25.61 °C 88.7 % 1,012.63 mbar 0.63 m/s 174.98 Deg 0.74 µg/m3
2022-09-06 03:00 2.68 µg/m3 -0.01 µg/m3 69.73 µg/m3 25.48 µg/m3 6.47 µg/m3 25.78 °C 88.73 % 1,012.86 mbar 0.75 m/s 230.8 Deg 0.73 µg/m3
2022-09-06 02:00 1.69 µg/m3 -0.02 µg/m3 71.17 µg/m3 17.39 µg/m3 6.16 µg/m3 25.84 °C 88.57 % 1,012.78 mbar 1.6 m/s 110.62 Deg 0.71 µg/m3
2022-09-06 01:00 3.33 µg/m3 0.02 µg/m3 68.49 µg/m3 14.66 µg/m3 6.93 µg/m3 25.95 °C 87.27 % 1,012.50 mbar 2.87 m/s 115.33 Deg 0.73 µg/m3
2022-09-06 00:00 1.59 µg/m3 -0.02 µg/m3 68.36 µg/m3 22.18 µg/m3 7.87 µg/m3 25.95 °C 89.67 % 1,012.71 mbar 2.7 m/s 120.52 Deg 0.71 µg/m3
2022-09-05 23:00 0.94 µg/m3 0 µg/m3 71.54 µg/m3 26.25 µg/m3 8.51 µg/m3 26.05 °C 89.02 % 1,012.88 mbar 2.96 m/s 117.53 Deg 0.73 µg/m3
2022-09-05 22:00 1.33 µg/m3 0.04 µg/m3 71.1 µg/m3 26.28 µg/m3 10.42 µg/m3 26.16 °C 88.13 % 1,012.89 mbar 2.9 m/s 119.55 Deg 0.74 µg/m3
2022-09-05 21:00 1.42 µg/m3 0 µg/m3 74.75 µg/m3 14.67 µg/m3 7.97 µg/m3 26.32 °C 87.22 % 1,012.93 mbar 2.75 m/s 125.32 Deg 0.69 µg/m3
2022-09-05 20:00 1.71 µg/m3 0 µg/m3 76.19 µg/m3 11.46 µg/m3 7.11 µg/m3 26.48 °C 87.14 % 1,012.32 mbar 3.68 m/s 127.42 Deg 0.69 µg/m3
2022-09-05 19:00 2.22 µg/m3 -0.01 µg/m3 74.34 µg/m3 14.93 µg/m3 8.51 µg/m3 26.67 °C 88.08 % 1,011.54 mbar 4.63 m/s 127.82 Deg 0.71 µg/m3
2022-09-05 18:00 0.84 µg/m3 0 µg/m3 78.62 µg/m3 13.69 µg/m3 10.24 µg/m3 27.12 °C 88.36 % 1,011.60 mbar 5.02 m/s 122.62 Deg 0.72 µg/m3
2022-09-05 17:00 1.63 µg/m3 0.03 µg/m3 82.26 µg/m3 19.21 µg/m3 8.16 µg/m3 27.76 °C 83.47 % 1,011.88 mbar 5.18 m/s 131.95 Deg 0.81 µg/m3
2022-09-05 16:00 1.59 µg/m3 0.03 µg/m3 72 µg/m3 14.63 µg/m3 9.99 µg/m3 27.93 °C 82.59 % 1,012.07 mbar 5.2 m/s 148 Deg 0.88 µg/m3
2022-09-05 15:00 0.49 µg/m3 0.02 µg/m3 66.38 µg/m3 18.7 µg/m3 14.12 µg/m3 28.25 °C 82.11 % 1,012.20 mbar 5.52 m/s 125.47 Deg 0.77 µg/m3
2022-09-05 14:00 2.21 µg/m3 0.01 µg/m3 66.35 µg/m3 31.83 µg/m3 11.85 µg/m3 28.45 °C 81.64 % 1,012.58 mbar 5.62 m/s 135.55 Deg 1.02 µg/m3
2022-09-05 13:00 2.02 µg/m3 0.06 µg/m3 70.25 µg/m3 48.04 µg/m3 12.63 µg/m3 28.49 °C 84.83 % 1,012.78 mbar 5.33 m/s 171.58 Deg 1.63 µg/m3
2022-09-05 12:00 1.21 µg/m3 0.03 µg/m3 71.51 µg/m3 45.4 µg/m3 16.71 µg/m3 28.65 °C 82.5 % 1,013.03 mbar 5.19 m/s 176.45 Deg 0.81 µg/m3
2022-09-05 11:00 1.04 µg/m3 0.04 µg/m3 70.94 µg/m3 57.08 µg/m3 9.11 µg/m3 28.57 °C 83.71 % 1,013.13 mbar 5.21 m/s 142.53 Deg 0.78 µg/m3
2022-09-05 10:00 3.45 µg/m3 0.01 µg/m3 77.95 µg/m3 65.09 µg/m3 12.75 µg/m3 28.96 °C 83.27 % 1,012.86 mbar 4.57 m/s 238.77 Deg 1.16 µg/m3
2022-09-05 09:00 6.77 µg/m3 0.03 µg/m3 73.4 µg/m3 65.74 µg/m3 14.19 µg/m3 28.87 °C 80.39 % 1,012.39 mbar 2.86 m/s 179.85 Deg 1.63 µg/m3
2022-09-05 08:00 11.69 µg/m3 0.04 µg/m3 64.67 µg/m3 55.55 µg/m3 13 µg/m3 28.34 °C 80.1 % 1,012.08 mbar 2.6 m/s 109.13 Deg 2.43 µg/m3
2022-09-05 07:00 18.57 µg/m3 0.08 µg/m3 54.86 µg/m3 41.99 µg/m3 14.52 µg/m3 27.44 °C 87.14 % 1,011.70 mbar 2.62 m/s 40.55 Deg 2.25 µg/m3
2022-09-05 06:00 19.39 µg/m3 0.06 µg/m3 48.08 µg/m3 40.98 µg/m3 9.08 µg/m3 27.2 °C 84.49 % 1,011.04 mbar 2.36 m/s 17.4 Deg 2.71 µg/m3
2022-09-05 05:00 15.31 µg/m3 0.04 µg/m3 52.93 µg/m3 20.77 µg/m3 12.21 µg/m3 27.26 °C 81.63 % 1,010.48 mbar 2.05 m/s 93.23 Deg 2 µg/m3
2022-09-05 04:00 7.07 µg/m3 0.23 µg/m3 58.6 µg/m3 17.99 µg/m3 12.48 µg/m3 27.49 °C 79.96 % 1,010.40 mbar 1.99 m/s 268.17 Deg 0.97 µg/m3
2022-09-05 03:00 14.33 µg/m3 0.07 µg/m3 47.28 µg/m3 28.99 µg/m3 9.45 µg/m3 27.72 °C 80.17 % 1,010.54 mbar 1.98 m/s 349.55 Deg 0.97 µg/m3
2022-09-05 02:00 10.63 µg/m3 0.02 µg/m3 49.68 µg/m3 30.87 µg/m3 12.2 µg/m3 27.86 °C 82.47 % 1,010.82 mbar 1.9 m/s 348.85 Deg 0.9 µg/m3
2022-09-05 01:00 10.82 µg/m3 0.05 µg/m3 52.54 µg/m3 45.12 µg/m3 12.01 µg/m3 28.22 °C 81.37 % 1,011.13 mbar 1.75 m/s 339.15 Deg 0.85 µg/m3
2022-09-05 00:00 9.57 µg/m3 0.07 µg/m3 48.1 µg/m3 83.03 µg/m3 13.99 µg/m3 28.01 °C 90.03 % 1,011.30 mbar 1.66 m/s 329.51 Deg 1.37 µg/m3
2022-09-04 23:00 11.71 µg/m3 0.06 µg/m3 46.25 µg/m3 78.17 µg/m3 15.33 µg/m3 28.28 °C 91.22 % 1,011.47 mbar 1.23 m/s 315.65 Deg 1.07 µg/m3
2022-09-04 22:00 13.77 µg/m3 0.09 µg/m3 48.69 µg/m3 26.36 µg/m3 9.1 µg/m3 28.98 °C 83.48 % 1,011.50 mbar 1.29 m/s 320.05 Deg 1.33 µg/m3
2022-09-04 21:00 13.9 µg/m3 0.07 µg/m3 51.02 µg/m3 9.56 µg/m3 5.84 µg/m3 29.7 °C 66.64 % 1,011.24 mbar 1.55 m/s 333.4 Deg 1.44 µg/m3
2022-09-04 20:00 13.85 µg/m3 0.08 µg/m3 53.48 µg/m3 8.65 µg/m3 7.24 µg/m3 30.07 °C 62.71 % 1,010.47 mbar 2.26 m/s 299.33 Deg 1.56 µg/m3
2022-09-04 19:00 10.82 µg/m3 0.06 µg/m3 55.75 µg/m3 9.92 µg/m3 9.76 µg/m3 30.17 °C 69.88 % 1,010.24 mbar 2.85 m/s 276.42 Deg 1.27 µg/m3
2022-09-04 18:00 7.8 µg/m3 0.06 µg/m3 60.25 µg/m3 9.41 µg/m3 13.25 µg/m3 30.89 °C 69.39 % 1,010.51 mbar 2.56 m/s 276.62 Deg 1.36 µg/m3
2022-09-04 17:00 3.89 µg/m3 0.06 µg/m3 63.99 µg/m3 9.98 µg/m3 7.83 µg/m3 30.7 °C 78.16 % 1,010.58 mbar 3.37 m/s 261.83 Deg 1.26 µg/m3
2022-09-04 16:00 2.53 µg/m3 0.03 µg/m3 64.66 µg/m3 12.99 µg/m3 6.18 µg/m3 30.89 °C 78.22 % 1,010.59 mbar 3.56 m/s 231.82 Deg 1.21 µg/m3
2022-09-04 15:00 1.31 µg/m3 0.04 µg/m3 67.22 µg/m3 14.79 µg/m3 7.4 µg/m3 31.53 °C 74.98 % 1,010.36 mbar 3.22 m/s 217.07 Deg 0.93 µg/m3
2022-09-04 14:00 1.58 µg/m3 0.04 µg/m3 68.56 µg/m3 17.51 µg/m3 5.47 µg/m3 31.47 °C 75.78 % 1,011.26 mbar 2.43 m/s 240.97 Deg 1.04 µg/m3
2022-09-04 13:00 2.89 µg/m3 -0 µg/m3 70.84 µg/m3 28.84 µg/m3 5.74 µg/m3 30.39 °C 82.03 % 1,011.31 mbar 4.06 m/s 200.45 Deg 1.25 µg/m3
2022-09-04 12:00 6.03 µg/m3 0.02 µg/m3 70.2 µg/m3 47.67 µg/m3 8.6 µg/m3 29.73 °C 87.33 % 1,011.32 mbar 4.18 m/s 173.93 Deg 1.96 µg/m3
2022-09-04 11:00 7.53 µg/m3 0.02 µg/m3 72.35 µg/m3 65.22 µg/m3 10.31 µg/m3 29.49 °C 89.24 % 1,011.53 mbar 4.02 m/s 175.78 Deg 2.08 µg/m3
2022-09-04 10:00 8.44 µg/m3 0.02 µg/m3 69.4 µg/m3 55.27 µg/m3 15.5 µg/m3 29.05 °C 89.94 % 1,011.16 mbar 4.05 m/s 168.48 Deg 2.21 µg/m3
2022-09-04 09:00 8.51 µg/m3 0.08 µg/m3 66.48 µg/m3 48.86 µg/m3 17.94 µg/m3 29.34 °C 85.4 % 1,011.52 mbar 2.18 m/s 212.88 Deg 2.06 µg/m3
2022-09-04 08:00 13.07 µg/m3 0.08 µg/m3 56.79 µg/m3 28.53 µg/m3 8.73 µg/m3 28.72 °C 86.47 % 1,011.86 mbar 0.97 m/s 291.86 Deg 2.59 µg/m3
2022-09-04 07:00 15.23 µg/m3 0.09 µg/m3 47.16 µg/m3 33.44 µg/m3 12.08 µg/m3 27.2 °C 92.62 % 1,011.77 mbar 1.12 m/s 120.01 Deg 1.83 µg/m3
2022-09-04 06:00 11.12 µg/m3 0.05 µg/m3 52.13 µg/m3 22 µg/m3 5.62 µg/m3 27.02 °C 99.23 % 1,010.95 mbar 1.21 m/s 323.35 Deg 1.39 µg/m3
2022-09-04 05:00 3.42 µg/m3 0.01 µg/m3 61.66 µg/m3 26.74 µg/m3 7.19 µg/m3 27.1 °C 98.23 % 1,010.19 mbar 1.48 m/s 245.44 Deg 0.77 µg/m3
2022-09-04 04:00 0.66 µg/m3 0.16 µg/m3 67.83 µg/m3 24.57 µg/m3 8.5 µg/m3 27.25 °C 96.41 % 1,009.81 mbar 3.81 m/s 205.52 Deg 0.72 µg/m3
2022-09-04 03:00 1.73 µg/m3 0.03 µg/m3 67.45 µg/m3 32.18 µg/m3 7.35 µg/m3 27.24 °C 95.2 % 1,009.87 mbar 3.85 m/s 209.13 Deg 0.75 µg/m3
2022-09-04 02:00 19.2 µg/m3 0.05 µg/m3 55.95 µg/m3 35.17 µg/m3 7.53 µg/m3 27.25 °C 95.9 % 1,009.83 mbar 4.15 m/s 196.38 Deg 1.01 µg/m3
2022-09-04 01:00 16.92 µg/m3 0.06 µg/m3 53.82 µg/m3 34.99 µg/m3 10.75 µg/m3 27.21 °C 96.12 % 1,010.01 mbar 3.18 m/s 182.05 Deg 0.94 µg/m3
2022-09-04 00:00 9.22 µg/m3 0.05 µg/m3 64.79 µg/m3 25.58 µg/m3 9.23 µg/m3 27.31 °C 94.78 % 1,010.05 mbar 3.41 m/s 180.32 Deg 0.85 µg/m3
2022-09-03 23:00 4.09 µg/m3 0.03 µg/m3 72.97 µg/m3 29.62 µg/m3 11.69 µg/m3 27.43 °C 93.83 % 1,010.30 mbar 3.56 m/s 171.57 Deg 0.77 µg/m3
2022-09-03 22:00 9.18 µg/m3 0.04 µg/m3 70.23 µg/m3 40.14 µg/m3 16.96 µg/m3 27.52 °C 93.56 % 1,010.20 mbar 4 m/s 173.82 Deg 0.84 µg/m3
2022-09-03 21:00 7.6 µg/m3 0.02 µg/m3 62.97 µg/m3 37.67 µg/m3 15.11 µg/m3 27.53 °C 92.97 % 1,009.99 mbar 3.79 m/s 177.8 Deg 0.84 µg/m3
2022-09-03 20:00 10.81 µg/m3 0.01 µg/m3 58.5 µg/m3 37.7 µg/m3 8.32 µg/m3 27.62 °C 91.69 % 1,009.51 mbar 3.9 m/s 179.35 Deg 0.87 µg/m3
2022-09-03 19:00 9.66 µg/m3 0.03 µg/m3 60.25 µg/m3 28.93 µg/m3 10.7 µg/m3 27.76 °C 88.56 % 1,009.12 mbar 3.8 m/s 179.68 Deg 0.93 µg/m3
2022-09-03 18:00 15.09 µg/m3 0.03 µg/m3 57.15 µg/m3 36.72 µg/m3 10.38 µg/m3 28.22 °C 84.2 % 1,008.94 mbar 4.04 m/s 181.7 Deg 1.76 µg/m3
2022-09-03 17:00 8.09 µg/m3 0.03 µg/m3 65.81 µg/m3 24.89 µg/m3 4.77 µg/m3 28.75 °C 78.62 % 1,009.06 mbar 3.95 m/s 185.42 Deg 1.57 µg/m3
2022-09-03 16:00 0.94 µg/m3 0 µg/m3 71.7 µg/m3 21.97 µg/m3 5.57 µg/m3 29.2 °C 75.59 % 1,009.28 mbar 4.42 m/s 196.77 Deg 0.79 µg/m3
2022-09-03 15:00 1.3 µg/m3 0.02 µg/m3 72.18 µg/m3 18.51 µg/m3 6.01 µg/m3 29.5 °C 72.19 % 1,009.67 mbar 4.05 m/s 205.88 Deg 0.9 µg/m3
2022-09-03 14:00 1.51 µg/m3 -0.01 µg/m3 73.71 µg/m3 11.22 µg/m3 6.98 µg/m3 29.71 °C 70.65 % 1,010.08 mbar 3.48 m/s 210.43 Deg 0.92 µg/m3
2022-09-03 13:00 1.85 µg/m3 -0.01 µg/m3 74.58 µg/m3 10.74 µg/m3 6.97 µg/m3 29.46 °C 72.68 % 1,010.30 mbar 3.88 m/s 201 Deg 0.97 µg/m3
2022-09-03 12:00 4.72 µg/m3 0.01 µg/m3 76.81 µg/m3 14.22 µg/m3 7.64 µg/m3 29.04 °C 73.74 % 1,010.17 mbar 3.88 m/s 180.68 Deg 1.44 µg/m3
2022-09-03 11:00 5.81 µg/m3 -0.01 µg/m3 74.87 µg/m3 22.07 µg/m3 8.69 µg/m3 28.76 °C 74.76 % 1,010.01 mbar 3.79 m/s 176.45 Deg 1.69 µg/m3
2022-09-03 10:00 2.29 µg/m3 0.01 µg/m3 78.83 µg/m3 34.99 µg/m3 12.97 µg/m3 28.43 °C 77.03 % 1,009.71 mbar 3.13 m/s 184.98 Deg 1.07 µg/m3
2022-09-03 09:00 4.62 µg/m3 0.02 µg/m3 78.19 µg/m3 56.47 µg/m3 18.95 µg/m3 27.76 °C 81.24 % 1,009.28 mbar 2.51 m/s 207.12 Deg 1.81 µg/m3
2022-09-03 08:00 22.48 µg/m3 0.08 µg/m3 54.47 µg/m3 70.91 µg/m3 22.11 µg/m3 26.85 °C 90.29 % 1,009.16 mbar 1.67 m/s 245.89 Deg 6.02 µg/m3
2022-09-03 07:00 45.08 µg/m3 0.11 µg/m3 24.38 µg/m3 53.53 µg/m3 12.3 µg/m3 25.81 °C 98.08 % 1,009.07 mbar 0.64 m/s 295.92 Deg 8.3 µg/m3
2022-09-03 06:00 31.17 µg/m3 0.1 µg/m3 30.26 µg/m3 38.22 µg/m3 11.4 µg/m3 25.4 °C 98.95 % 1,008.49 mbar 0.33 m/s 233.87 Deg 2.03 µg/m3
2022-09-03 05:00 13 µg/m3 0.03 µg/m3 50.78 µg/m3 27.31 µg/m3 18.07 µg/m3 25.47 °C 98.85 % 1,008.42 mbar 0.82 m/s 282.23 Deg 1.09 µg/m3
2022-09-03 04:00 6.41 µg/m3 0.11 µg/m3 56.17 µg/m3 38.31 µg/m3 15.51 µg/m3 25.45 °C 98.47 % 1,008.30 mbar 0.99 m/s 259.3 Deg 0.81 µg/m3
2022-09-03 03:00 6.62 µg/m3 -0.01 µg/m3 56.66 µg/m3 45.03 µg/m3 13.72 µg/m3 25.66 °C 98.05 % 1,008.23 mbar 0.7 m/s 286.22 Deg 0.81 µg/m3
2022-09-03 02:00 7.32 µg/m3 0.01 µg/m3 59.01 µg/m3 33.66 µg/m3 11.88 µg/m3 25.82 °C 96.8 % 1,008.01 mbar 0.66 m/s 316.71 Deg 0.79 µg/m3
2022-09-03 01:00 7.19 µg/m3 0 µg/m3 57.85 µg/m3 48.92 µg/m3 14.23 µg/m3 25.9 °C 95.27 % 1,008.04 mbar 0.92 m/s 286.83 Deg 0.82 µg/m3
2022-09-03 00:00 15.15 µg/m3 0.05 µg/m3 55.69 µg/m3 51.66 µg/m3 17.82 µg/m3 25.7 °C 93.65 % 1,008.06 mbar 0.94 m/s 244.85 Deg 1.01 µg/m3
2022-09-02 23:00 14.48 µg/m3 0.03 µg/m3 58.69 µg/m3 63.97 µg/m3 19.43 µg/m3 26.07 °C 91.59 % 1,008.02 mbar 0.72 m/s 262.13 Deg 0.93 µg/m3
2022-09-02 22:00 14.4 µg/m3 0.03 µg/m3 63.37 µg/m3 58.95 µg/m3 22.66 µg/m3 26.4 °C 89.62 % 1,007.98 mbar 0.8 m/s 256.95 Deg 0.95 µg/m3
2022-09-02 21:00 12.6 µg/m3 0.01 µg/m3 69.65 µg/m3 74.91 µg/m3 17.35 µg/m3 26.61 °C 87.64 % 1,007.64 mbar 1.14 m/s 308.93 Deg 1.05 µg/m3
2022-09-02 20:00 12.75 µg/m3 0.04 µg/m3 71.52 µg/m3 58.34 µg/m3 8.12 µg/m3 26.83 °C 84.71 % 1,006.97 mbar 2.2 m/s 290.13 Deg 1.19 µg/m3

It is to be noted that the data is provisional and subject to quality assurance procedures. For validated data kindly refer your request to contact.air@era.org.mt